<?xml version="1.0" encoding="UTF-8" standalone="no" ?>
<gpx xmlns="http://www.topografix.com/GPX/1/1" xmlns:xsi="http://www.w3.org/2001/XMLSchema-instance" xsi:schemaLocation="http://www.topografix.com/GPX/1/1 http://www.topografix.com/GPX/1/1/gpx.xsd" version="1.1" creator="VisuGPX - https://www.visugpx.com">
  <metadata>
    <name>La vallee du Lilion</name>
  </metadata>
  <trk>
    <name><![CDATA[4V-VTT-11 La vallee du Lilion]]></name>
    <trkseg>
      <trkpt lat="45.7536" lon="3.5379">
        <ele>329</ele>
        <time>2018-01-14T07:36:42Z</time>
      </trkpt>
      <trkpt lat="45.7534" lon="3.53783">
        <ele>327</ele>
        <time>2018-01-14T07:37:42Z</time>
      </trkpt>
      <trkpt lat="45.75338" lon="3.53771">
        <ele>328</ele>
        <time>2018-01-14T07:38:42Z</time>
      </trkpt>
      <trkpt lat="45.75344" lon="3.53761">
        <ele>329</ele>
        <time>2018-01-14T07:39:42Z</time>
      </trkpt>
      <trkpt lat="45.75365" lon="3.53762">
        <ele>330</ele>
        <time>2018-01-14T07:40:42Z</time>
      </trkpt>
      <trkpt lat="45.75372" lon="3.53681">
        <ele>330</ele>
        <time>2018-01-14T07:41:42Z</time>
      </trkpt>
      <trkpt lat="45.75372" lon="3.53545">
        <ele>331</ele>
        <time>2018-01-14T07:42:42Z</time>
      </trkpt>
      <trkpt lat="45.75372" lon="3.53503">
        <ele>331</ele>
        <time>2018-01-14T07:43:42Z</time>
      </trkpt>
      <trkpt lat="45.75377" lon="3.53471">
        <ele>332</ele>
        <time>2018-01-14T07:44:42Z</time>
      </trkpt>
      <trkpt lat="45.754" lon="3.53462">
        <ele>332</ele>
        <time>2018-01-14T07:45:42Z</time>
      </trkpt>
      <trkpt lat="45.75414" lon="3.53445">
        <ele>332</ele>
        <time>2018-01-14T07:46:42Z</time>
      </trkpt>
      <trkpt lat="45.75422" lon="3.53424">
        <ele>332</ele>
        <time>2018-01-14T07:47:42Z</time>
      </trkpt>
      <trkpt lat="45.75424" lon="3.53393">
        <ele>332</ele>
        <time>2018-01-14T07:48:42Z</time>
      </trkpt>
      <trkpt lat="45.7543" lon="3.53363">
        <ele>333</ele>
        <time>2018-01-14T07:49:42Z</time>
      </trkpt>
      <trkpt lat="45.75451" lon="3.53326">
        <ele>333</ele>
        <time>2018-01-14T07:50:42Z</time>
      </trkpt>
      <trkpt lat="45.7546" lon="3.53305">
        <ele>334</ele>
        <time>2018-01-14T07:51:42Z</time>
      </trkpt>
      <trkpt lat="45.75462" lon="3.53278">
        <ele>335</ele>
        <time>2018-01-14T07:52:42Z</time>
      </trkpt>
      <trkpt lat="45.75456" lon="3.53211">
        <ele>337</ele>
        <time>2018-01-14T07:53:42Z</time>
      </trkpt>
      <trkpt lat="45.75452" lon="3.53154">
        <ele>340</ele>
        <time>2018-01-14T07:54:42Z</time>
      </trkpt>
      <trkpt lat="45.75451" lon="3.53064">
        <ele>349</ele>
        <time>2018-01-14T07:55:42Z</time>
      </trkpt>
      <trkpt lat="45.75455" lon="3.53008">
        <ele>354</ele>
        <time>2018-01-14T07:56:42Z</time>
      </trkpt>
      <trkpt lat="45.75464" lon="3.52955">
        <ele>359</ele>
        <time>2018-01-14T07:57:42Z</time>
      </trkpt>
      <trkpt lat="45.75481" lon="3.52902">
        <ele>362</ele>
        <time>2018-01-14T07:58:42Z</time>
      </trkpt>
      <trkpt lat="45.75494" lon="3.52856">
        <ele>365</ele>
        <time>2018-01-14T07:59:42Z</time>
      </trkpt>
      <trkpt lat="45.75498" lon="3.52824">
        <ele>368</ele>
        <time>2018-01-14T08:00:42Z</time>
      </trkpt>
      <trkpt lat="45.75502" lon="3.52771">
        <ele>371</ele>
        <time>2018-01-14T08:01:42Z</time>
      </trkpt>
      <trkpt lat="45.75524" lon="3.52767">
        <ele>372</ele>
        <time>2018-01-14T08:02:42Z</time>
      </trkpt>
      <trkpt lat="45.75568" lon="3.52763">
        <ele>372</ele>
        <time>2018-01-14T08:03:42Z</time>
      </trkpt>
      <trkpt lat="45.75627" lon="3.52745">
        <ele>373</ele>
        <time>2018-01-14T08:04:42Z</time>
      </trkpt>
      <trkpt lat="45.75698" lon="3.52723">
        <ele>373</ele>
        <time>2018-01-14T08:05:42Z</time>
      </trkpt>
      <trkpt lat="45.75704" lon="3.52743">
        <ele>371</ele>
        <time>2018-01-14T08:06:42Z</time>
      </trkpt>
      <trkpt lat="45.75713" lon="3.52757">
        <ele>370</ele>
        <time>2018-01-14T08:07:42Z</time>
      </trkpt>
      <trkpt lat="45.7574" lon="3.52785">
        <ele>367</ele>
        <time>2018-01-14T08:08:42Z</time>
      </trkpt>
      <trkpt lat="45.75762" lon="3.52801">
        <ele>365</ele>
        <time>2018-01-14T08:09:42Z</time>
      </trkpt>
      <trkpt lat="45.75838" lon="3.52821">
        <ele>363</ele>
        <time>2018-01-14T08:10:42Z</time>
      </trkpt>
      <trkpt lat="45.75874" lon="3.52831">
        <ele>362</ele>
        <time>2018-01-14T08:11:42Z</time>
      </trkpt>
      <trkpt lat="45.75893" lon="3.52841">
        <ele>361</ele>
        <time>2018-01-14T08:12:42Z</time>
      </trkpt>
      <trkpt lat="45.75898" lon="3.52858">
        <ele>360</ele>
        <time>2018-01-14T08:13:42Z</time>
      </trkpt>
      <trkpt lat="45.75901" lon="3.52879">
        <ele>359</ele>
        <time>2018-01-14T08:14:42Z</time>
      </trkpt>
      <trkpt lat="45.75902" lon="3.52925">
        <ele>357</ele>
        <time>2018-01-14T08:15:42Z</time>
      </trkpt>
      <trkpt lat="45.75908" lon="3.5295">
        <ele>355</ele>
        <time>2018-01-14T08:16:42Z</time>
      </trkpt>
      <trkpt lat="45.75937" lon="3.53">
        <ele>352</ele>
        <time>2018-01-14T08:17:42Z</time>
      </trkpt>
      <trkpt lat="45.75985" lon="3.53071">
        <ele>350</ele>
        <time>2018-01-14T08:18:42Z</time>
      </trkpt>
      <trkpt lat="45.76" lon="3.53064">
        <ele>350</ele>
        <time>2018-01-14T08:19:42Z</time>
      </trkpt>
      <trkpt lat="45.76083" lon="3.52954">
        <ele>351</ele>
        <time>2018-01-14T08:20:42Z</time>
      </trkpt>
      <trkpt lat="45.76124" lon="3.52896">
        <ele>351</ele>
        <time>2018-01-14T08:21:42Z</time>
      </trkpt>
      <trkpt lat="45.76141" lon="3.52866">
        <ele>351</ele>
        <time>2018-01-14T08:22:42Z</time>
      </trkpt>
      <trkpt lat="45.76156" lon="3.52817">
        <ele>352</ele>
        <time>2018-01-14T08:23:42Z</time>
      </trkpt>
      <trkpt lat="45.76167" lon="3.52771">
        <ele>354</ele>
        <time>2018-01-14T08:24:42Z</time>
      </trkpt>
      <trkpt lat="45.76194" lon="3.5273">
        <ele>354</ele>
        <time>2018-01-14T08:25:42Z</time>
      </trkpt>
      <trkpt lat="45.76253" lon="3.5268">
        <ele>353</ele>
        <time>2018-01-14T08:26:42Z</time>
      </trkpt>
      <trkpt lat="45.76302" lon="3.52643">
        <ele>352</ele>
        <time>2018-01-14T08:27:42Z</time>
      </trkpt>
      <trkpt lat="45.76322" lon="3.52608">
        <ele>353</ele>
        <time>2018-01-14T08:28:42Z</time>
      </trkpt>
      <trkpt lat="45.76339" lon="3.52595">
        <ele>353</ele>
        <time>2018-01-14T08:29:42Z</time>
      </trkpt>
      <trkpt lat="45.76393" lon="3.52575">
        <ele>348</ele>
        <time>2018-01-14T08:30:42Z</time>
      </trkpt>
      <trkpt lat="45.76417" lon="3.5256">
        <ele>346</ele>
        <time>2018-01-14T08:31:42Z</time>
      </trkpt>
      <trkpt lat="45.76424" lon="3.52543">
        <ele>346</ele>
        <time>2018-01-14T08:32:42Z</time>
      </trkpt>
      <trkpt lat="45.76433" lon="3.52521">
        <ele>346</ele>
        <time>2018-01-14T08:33:42Z</time>
      </trkpt>
      <trkpt lat="45.76444" lon="3.52512">
        <ele>346</ele>
        <time>2018-01-14T08:34:42Z</time>
      </trkpt>
      <trkpt lat="45.76466" lon="3.52504">
        <ele>346</ele>
        <time>2018-01-14T08:35:42Z</time>
      </trkpt>
      <trkpt lat="45.76492" lon="3.52496">
        <ele>345</ele>
        <time>2018-01-14T08:36:42Z</time>
      </trkpt>
      <trkpt lat="45.76519" lon="3.52487">
        <ele>348</ele>
        <time>2018-01-14T08:37:42Z</time>
      </trkpt>
      <trkpt lat="45.76541" lon="3.5247">
        <ele>351</ele>
        <time>2018-01-14T08:38:42Z</time>
      </trkpt>
      <trkpt lat="45.76554" lon="3.5246">
        <ele>353</ele>
        <time>2018-01-14T08:39:42Z</time>
      </trkpt>
      <trkpt lat="45.76582" lon="3.52439">
        <ele>358</ele>
        <time>2018-01-14T08:40:42Z</time>
      </trkpt>
      <trkpt lat="45.76603" lon="3.52425">
        <ele>361</ele>
        <time>2018-01-14T08:41:42Z</time>
      </trkpt>
      <trkpt lat="45.76617" lon="3.52408">
        <ele>363</ele>
        <time>2018-01-14T08:42:42Z</time>
      </trkpt>
      <trkpt lat="45.76634" lon="3.52379">
        <ele>366</ele>
        <time>2018-01-14T08:43:42Z</time>
      </trkpt>
      <trkpt lat="45.76646" lon="3.52359">
        <ele>368</ele>
        <time>2018-01-14T08:44:42Z</time>
      </trkpt>
      <trkpt lat="45.76657" lon="3.52329">
        <ele>370</ele>
        <time>2018-01-14T08:45:42Z</time>
      </trkpt>
      <trkpt lat="45.76665" lon="3.52315">
        <ele>371</ele>
        <time>2018-01-14T08:46:42Z</time>
      </trkpt>
      <trkpt lat="45.76691" lon="3.52286">
        <ele>374</ele>
        <time>2018-01-14T08:47:42Z</time>
      </trkpt>
      <trkpt lat="45.76715" lon="3.52259">
        <ele>378</ele>
        <time>2018-01-14T08:48:42Z</time>
      </trkpt>
      <trkpt lat="45.76764" lon="3.52189">
        <ele>385</ele>
        <time>2018-01-14T08:49:42Z</time>
      </trkpt>
      <trkpt lat="45.76769" lon="3.52175">
        <ele>386</ele>
        <time>2018-01-14T08:50:42Z</time>
      </trkpt>
      <trkpt lat="45.76786" lon="3.5211">
        <ele>392</ele>
        <time>2018-01-14T08:51:42Z</time>
      </trkpt>
      <trkpt lat="45.76795" lon="3.52055">
        <ele>397</ele>
        <time>2018-01-14T08:52:42Z</time>
      </trkpt>
      <trkpt lat="45.76801" lon="3.52033">
        <ele>399</ele>
        <time>2018-01-14T08:53:42Z</time>
      </trkpt>
      <trkpt lat="45.76808" lon="3.52015">
        <ele>401</ele>
        <time>2018-01-14T08:54:42Z</time>
      </trkpt>
      <trkpt lat="45.76829" lon="3.51987">
        <ele>404</ele>
        <time>2018-01-14T08:55:42Z</time>
      </trkpt>
      <trkpt lat="45.76845" lon="3.51961">
        <ele>406</ele>
        <time>2018-01-14T08:56:42Z</time>
      </trkpt>
      <trkpt lat="45.76858" lon="3.51934">
        <ele>409</ele>
        <time>2018-01-14T08:57:42Z</time>
      </trkpt>
      <trkpt lat="45.76875" lon="3.5188">
        <ele>415</ele>
        <time>2018-01-14T08:58:42Z</time>
      </trkpt>
      <trkpt lat="45.76878" lon="3.51862">
        <ele>416</ele>
        <time>2018-01-14T08:59:42Z</time>
      </trkpt>
      <trkpt lat="45.76886" lon="3.51831">
        <ele>419</ele>
        <time>2018-01-14T09:00:42Z</time>
      </trkpt>
      <trkpt lat="45.7689" lon="3.518">
        <ele>420</ele>
        <time>2018-01-14T09:01:42Z</time>
      </trkpt>
      <trkpt lat="45.76892" lon="3.51774">
        <ele>420</ele>
        <time>2018-01-14T09:02:42Z</time>
      </trkpt>
      <trkpt lat="45.76894" lon="3.51745">
        <ele>421</ele>
        <time>2018-01-14T09:03:42Z</time>
      </trkpt>
      <trkpt lat="45.7689" lon="3.51716">
        <ele>421</ele>
        <time>2018-01-14T09:04:42Z</time>
      </trkpt>
      <trkpt lat="45.76881" lon="3.51706">
        <ele>421</ele>
        <time>2018-01-14T09:05:42Z</time>
      </trkpt>
      <trkpt lat="45.76871" lon="3.51702">
        <ele>422</ele>
        <time>2018-01-14T09:06:42Z</time>
      </trkpt>
      <trkpt lat="45.76857" lon="3.51687">
        <ele>422</ele>
        <time>2018-01-14T09:07:42Z</time>
      </trkpt>
      <trkpt lat="45.76852" lon="3.51666">
        <ele>423</ele>
        <time>2018-01-14T09:08:42Z</time>
      </trkpt>
      <trkpt lat="45.76845" lon="3.51637">
        <ele>423</ele>
        <time>2018-01-14T09:09:42Z</time>
      </trkpt>
      <trkpt lat="45.76838" lon="3.51609">
        <ele>423</ele>
        <time>2018-01-14T09:10:42Z</time>
      </trkpt>
      <trkpt lat="45.76824" lon="3.51583">
        <ele>423</ele>
        <time>2018-01-14T09:11:42Z</time>
      </trkpt>
      <trkpt lat="45.76806" lon="3.5155">
        <ele>425</ele>
        <time>2018-01-14T09:12:42Z</time>
      </trkpt>
      <trkpt lat="45.76795" lon="3.51523">
        <ele>426</ele>
        <time>2018-01-14T09:13:42Z</time>
      </trkpt>
      <trkpt lat="45.76788" lon="3.515">
        <ele>426</ele>
        <time>2018-01-14T09:14:42Z</time>
      </trkpt>
      <trkpt lat="45.76787" lon="3.51475">
        <ele>427</ele>
        <time>2018-01-14T09:15:42Z</time>
      </trkpt>
      <trkpt lat="45.76794" lon="3.51442">
        <ele>429</ele>
        <time>2018-01-14T09:16:42Z</time>
      </trkpt>
      <trkpt lat="45.76805" lon="3.51418">
        <ele>430</ele>
        <time>2018-01-14T09:17:42Z</time>
      </trkpt>
      <trkpt lat="45.76826" lon="3.51398">
        <ele>431</ele>
        <time>2018-01-14T09:18:42Z</time>
      </trkpt>
      <trkpt lat="45.76879" lon="3.51372">
        <ele>432</ele>
        <time>2018-01-14T09:19:42Z</time>
      </trkpt>
      <trkpt lat="45.76953" lon="3.5133">
        <ele>436</ele>
        <time>2018-01-14T09:20:42Z</time>
      </trkpt>
      <trkpt lat="45.76982" lon="3.51305">
        <ele>437</ele>
        <time>2018-01-14T09:21:42Z</time>
      </trkpt>
      <trkpt lat="45.76994" lon="3.51287">
        <ele>437</ele>
        <time>2018-01-14T09:22:42Z</time>
      </trkpt>
      <trkpt lat="45.77007" lon="3.51233">
        <ele>436</ele>
        <time>2018-01-14T09:23:42Z</time>
      </trkpt>
      <trkpt lat="45.77017" lon="3.51203">
        <ele>437</ele>
        <time>2018-01-14T09:24:42Z</time>
      </trkpt>
      <trkpt lat="45.77032" lon="3.51174">
        <ele>436</ele>
        <time>2018-01-14T09:25:42Z</time>
      </trkpt>
      <trkpt lat="45.77048" lon="3.51151">
        <ele>435</ele>
        <time>2018-01-14T09:26:42Z</time>
      </trkpt>
      <trkpt lat="45.77063" lon="3.51124">
        <ele>435</ele>
        <time>2018-01-14T09:27:42Z</time>
      </trkpt>
      <trkpt lat="45.77079" lon="3.51079">
        <ele>437</ele>
        <time>2018-01-14T09:28:42Z</time>
      </trkpt>
      <trkpt lat="45.77079" lon="3.51063">
        <ele>438</ele>
        <time>2018-01-14T09:29:42Z</time>
      </trkpt>
      <trkpt lat="45.77028" lon="3.51006">
        <ele>440</ele>
        <time>2018-01-14T09:30:42Z</time>
      </trkpt>
      <trkpt lat="45.76997" lon="3.50971">
        <ele>440</ele>
        <time>2018-01-14T09:31:42Z</time>
      </trkpt>
      <trkpt lat="45.76981" lon="3.50944">
        <ele>438</ele>
        <time>2018-01-14T09:32:42Z</time>
      </trkpt>
      <trkpt lat="45.76955" lon="3.5089">
        <ele>437</ele>
        <time>2018-01-14T09:33:42Z</time>
      </trkpt>
      <trkpt lat="45.76938" lon="3.50863">
        <ele>436</ele>
        <time>2018-01-14T09:34:42Z</time>
      </trkpt>
      <trkpt lat="45.76916" lon="3.50819">
        <ele>436</ele>
        <time>2018-01-14T09:35:42Z</time>
      </trkpt>
      <trkpt lat="45.76898" lon="3.50785">
        <ele>437</ele>
        <time>2018-01-14T09:36:42Z</time>
      </trkpt>
      <trkpt lat="45.76878" lon="3.50755">
        <ele>437</ele>
        <time>2018-01-14T09:37:42Z</time>
      </trkpt>
      <trkpt lat="45.76856" lon="3.50725">
        <ele>438</ele>
        <time>2018-01-14T09:38:42Z</time>
      </trkpt>
      <trkpt lat="45.76816" lon="3.50673">
        <ele>440</ele>
        <time>2018-01-14T09:39:42Z</time>
      </trkpt>
      <trkpt lat="45.76781" lon="3.50629">
        <ele>443</ele>
        <time>2018-01-14T09:40:42Z</time>
      </trkpt>
      <trkpt lat="45.76756" lon="3.50603">
        <ele>444</ele>
        <time>2018-01-14T09:41:42Z</time>
      </trkpt>
      <trkpt lat="45.76746" lon="3.50591">
        <ele>444</ele>
        <time>2018-01-14T09:42:42Z</time>
      </trkpt>
      <trkpt lat="45.76734" lon="3.50588">
        <ele>444</ele>
        <time>2018-01-14T09:43:42Z</time>
      </trkpt>
      <trkpt lat="45.76715" lon="3.50587">
        <ele>443</ele>
        <time>2018-01-14T09:44:42Z</time>
      </trkpt>
      <trkpt lat="45.76698" lon="3.50578">
        <ele>442</ele>
        <time>2018-01-14T09:45:42Z</time>
      </trkpt>
      <trkpt lat="45.76671" lon="3.5057">
        <ele>441</ele>
        <time>2018-01-14T09:46:42Z</time>
      </trkpt>
      <trkpt lat="45.76664" lon="3.5057">
        <ele>441</ele>
        <time>2018-01-14T09:47:42Z</time>
      </trkpt>
      <trkpt lat="45.76648" lon="3.50576">
        <ele>439</ele>
        <time>2018-01-14T09:48:42Z</time>
      </trkpt>
      <trkpt lat="45.76638" lon="3.50579">
        <ele>439</ele>
        <time>2018-01-14T09:49:42Z</time>
      </trkpt>
      <trkpt lat="45.76617" lon="3.50579">
        <ele>437</ele>
        <time>2018-01-14T09:50:42Z</time>
      </trkpt>
      <trkpt lat="45.76561" lon="3.50567">
        <ele>435</ele>
        <time>2018-01-14T09:51:42Z</time>
      </trkpt>
      <trkpt lat="45.76552" lon="3.50567">
        <ele>434</ele>
        <time>2018-01-14T09:52:42Z</time>
      </trkpt>
      <trkpt lat="45.76436" lon="3.50619">
        <ele>428</ele>
        <time>2018-01-14T09:53:42Z</time>
      </trkpt>
      <trkpt lat="45.76429" lon="3.50621">
        <ele>429</ele>
        <time>2018-01-14T09:54:42Z</time>
      </trkpt>
      <trkpt lat="45.76419" lon="3.5062">
        <ele>429</ele>
        <time>2018-01-14T09:55:42Z</time>
      </trkpt>
      <trkpt lat="45.76397" lon="3.50616">
        <ele>429</ele>
        <time>2018-01-14T09:56:42Z</time>
      </trkpt>
      <trkpt lat="45.76388" lon="3.50621">
        <ele>429</ele>
        <time>2018-01-14T09:57:42Z</time>
      </trkpt>
      <trkpt lat="45.76378" lon="3.5063">
        <ele>429</ele>
        <time>2018-01-14T09:58:42Z</time>
      </trkpt>
      <trkpt lat="45.7636" lon="3.50639">
        <ele>428</ele>
        <time>2018-01-14T09:59:42Z</time>
      </trkpt>
      <trkpt lat="45.7635" lon="3.50642">
        <ele>428</ele>
        <time>2018-01-14T10:00:42Z</time>
      </trkpt>
      <trkpt lat="45.76335" lon="3.50637">
        <ele>428</ele>
        <time>2018-01-14T10:01:42Z</time>
      </trkpt>
      <trkpt lat="45.76323" lon="3.50637">
        <ele>429</ele>
        <time>2018-01-14T10:02:42Z</time>
      </trkpt>
      <trkpt lat="45.76308" lon="3.50642">
        <ele>429</ele>
        <time>2018-01-14T10:03:42Z</time>
      </trkpt>
      <trkpt lat="45.76277" lon="3.50647">
        <ele>430</ele>
        <time>2018-01-14T10:04:42Z</time>
      </trkpt>
      <trkpt lat="45.76268" lon="3.50649">
        <ele>430</ele>
        <time>2018-01-14T10:05:42Z</time>
      </trkpt>
      <trkpt lat="45.76262" lon="3.50665">
        <ele>430</ele>
        <time>2018-01-14T10:06:42Z</time>
      </trkpt>
      <trkpt lat="45.76256" lon="3.50689">
        <ele>431</ele>
        <time>2018-01-14T10:07:42Z</time>
      </trkpt>
      <trkpt lat="45.76251" lon="3.50701">
        <ele>431</ele>
        <time>2018-01-14T10:08:42Z</time>
      </trkpt>
      <trkpt lat="45.76238" lon="3.50708">
        <ele>431</ele>
        <time>2018-01-14T10:09:42Z</time>
      </trkpt>
      <trkpt lat="45.76219" lon="3.50714">
        <ele>431</ele>
        <time>2018-01-14T10:10:42Z</time>
      </trkpt>
      <trkpt lat="45.76202" lon="3.50719">
        <ele>431</ele>
        <time>2018-01-14T10:11:42Z</time>
      </trkpt>
      <trkpt lat="45.7619" lon="3.50728">
        <ele>431</ele>
        <time>2018-01-14T10:12:42Z</time>
      </trkpt>
      <trkpt lat="45.76186" lon="3.50725">
        <ele>431</ele>
        <time>2018-01-14T10:13:42Z</time>
      </trkpt>
      <trkpt lat="45.76191" lon="3.50688">
        <ele>432</ele>
        <time>2018-01-14T10:14:42Z</time>
      </trkpt>
      <trkpt lat="45.76185" lon="3.50659">
        <ele>432</ele>
        <time>2018-01-14T10:15:42Z</time>
      </trkpt>
      <trkpt lat="45.76171" lon="3.50599">
        <ele>431</ele>
        <time>2018-01-14T10:16:42Z</time>
      </trkpt>
      <trkpt lat="45.76157" lon="3.50532">
        <ele>430</ele>
        <time>2018-01-14T10:17:42Z</time>
      </trkpt>
      <trkpt lat="45.76148" lon="3.50498">
        <ele>430</ele>
        <time>2018-01-14T10:18:42Z</time>
      </trkpt>
      <trkpt lat="45.76139" lon="3.50476">
        <ele>430</ele>
        <time>2018-01-14T10:19:42Z</time>
      </trkpt>
      <trkpt lat="45.76128" lon="3.50446">
        <ele>431</ele>
        <time>2018-01-14T10:20:42Z</time>
      </trkpt>
      <trkpt lat="45.76127" lon="3.50419">
        <ele>432</ele>
        <time>2018-01-14T10:21:42Z</time>
      </trkpt>
      <trkpt lat="45.76126" lon="3.50385">
        <ele>433</ele>
        <time>2018-01-14T10:22:42Z</time>
      </trkpt>
      <trkpt lat="45.7614" lon="3.50276">
        <ele>438</ele>
        <time>2018-01-14T10:23:42Z</time>
      </trkpt>
      <trkpt lat="45.76154" lon="3.50199">
        <ele>445</ele>
        <time>2018-01-14T10:24:42Z</time>
      </trkpt>
      <trkpt lat="45.7616" lon="3.50177">
        <ele>448</ele>
        <time>2018-01-14T10:25:42Z</time>
      </trkpt>
      <trkpt lat="45.76167" lon="3.50151">
        <ele>451</ele>
        <time>2018-01-14T10:26:42Z</time>
      </trkpt>
      <trkpt lat="45.76182" lon="3.50144">
        <ele>451</ele>
        <time>2018-01-14T10:27:42Z</time>
      </trkpt>
      <trkpt lat="45.76197" lon="3.50135">
        <ele>452</ele>
        <time>2018-01-14T10:28:42Z</time>
      </trkpt>
      <trkpt lat="45.76206" lon="3.50125">
        <ele>452</ele>
        <time>2018-01-14T10:29:42Z</time>
      </trkpt>
      <trkpt lat="45.76208" lon="3.50092">
        <ele>454</ele>
        <time>2018-01-14T10:30:42Z</time>
      </trkpt>
      <trkpt lat="45.7621" lon="3.50064">
        <ele>455</ele>
        <time>2018-01-14T10:31:42Z</time>
      </trkpt>
      <trkpt lat="45.76211" lon="3.50031">
        <ele>455</ele>
        <time>2018-01-14T10:32:42Z</time>
      </trkpt>
      <trkpt lat="45.762" lon="3.5002">
        <ele>455</ele>
        <time>2018-01-14T10:33:42Z</time>
      </trkpt>
      <trkpt lat="45.76189" lon="3.50006">
        <ele>456</ele>
        <time>2018-01-14T10:34:42Z</time>
      </trkpt>
      <trkpt lat="45.76187" lon="3.50001">
        <ele>456</ele>
        <time>2018-01-14T10:35:42Z</time>
      </trkpt>
      <trkpt lat="45.76194" lon="3.49987">
        <ele>456</ele>
        <time>2018-01-14T10:36:42Z</time>
      </trkpt>
      <trkpt lat="45.76195" lon="3.4998">
        <ele>456</ele>
        <time>2018-01-14T10:37:42Z</time>
      </trkpt>
      <trkpt lat="45.76199" lon="3.4997">
        <ele>455</ele>
        <time>2018-01-14T10:38:42Z</time>
      </trkpt>
      <trkpt lat="45.76202" lon="3.49953">
        <ele>455</ele>
        <time>2018-01-14T10:39:42Z</time>
      </trkpt>
      <trkpt lat="45.76207" lon="3.49933">
        <ele>455</ele>
        <time>2018-01-14T10:40:42Z</time>
      </trkpt>
      <trkpt lat="45.76201" lon="3.49919">
        <ele>455</ele>
        <time>2018-01-14T10:41:42Z</time>
      </trkpt>
      <trkpt lat="45.76193" lon="3.49908">
        <ele>455</ele>
        <time>2018-01-14T10:42:42Z</time>
      </trkpt>
      <trkpt lat="45.76175" lon="3.49889">
        <ele>454</ele>
        <time>2018-01-14T10:43:42Z</time>
      </trkpt>
      <trkpt lat="45.76138" lon="3.49844">
        <ele>451</ele>
        <time>2018-01-14T10:44:42Z</time>
      </trkpt>
      <trkpt lat="45.76104" lon="3.49814">
        <ele>448</ele>
        <time>2018-01-14T10:45:42Z</time>
      </trkpt>
      <trkpt lat="45.76085" lon="3.49796">
        <ele>448</ele>
        <time>2018-01-14T10:46:42Z</time>
      </trkpt>
      <trkpt lat="45.7608" lon="3.49792">
        <ele>448</ele>
        <time>2018-01-14T10:47:42Z</time>
      </trkpt>
      <trkpt lat="45.76079" lon="3.4978">
        <ele>447</ele>
        <time>2018-01-14T10:48:42Z</time>
      </trkpt>
      <trkpt lat="45.76081" lon="3.49763">
        <ele>447</ele>
        <time>2018-01-14T10:49:42Z</time>
      </trkpt>
      <trkpt lat="45.76086" lon="3.49741">
        <ele>446</ele>
        <time>2018-01-14T10:50:42Z</time>
      </trkpt>
      <trkpt lat="45.76092" lon="3.49728">
        <ele>445</ele>
        <time>2018-01-14T10:51:42Z</time>
      </trkpt>
      <trkpt lat="45.76101" lon="3.49713">
        <ele>444</ele>
        <time>2018-01-14T10:52:42Z</time>
      </trkpt>
      <trkpt lat="45.76111" lon="3.49699">
        <ele>443</ele>
        <time>2018-01-14T10:53:42Z</time>
      </trkpt>
      <trkpt lat="45.76119" lon="3.49683">
        <ele>441</ele>
        <time>2018-01-14T10:54:42Z</time>
      </trkpt>
      <trkpt lat="45.76127" lon="3.49654">
        <ele>440</ele>
        <time>2018-01-14T10:55:42Z</time>
      </trkpt>
      <trkpt lat="45.76142" lon="3.49612">
        <ele>439</ele>
        <time>2018-01-14T10:56:42Z</time>
      </trkpt>
      <trkpt lat="45.76153" lon="3.49568">
        <ele>438</ele>
        <time>2018-01-14T10:57:42Z</time>
      </trkpt>
      <trkpt lat="45.76165" lon="3.49523">
        <ele>438</ele>
        <time>2018-01-14T10:58:42Z</time>
      </trkpt>
      <trkpt lat="45.76167" lon="3.49503">
        <ele>438</ele>
        <time>2018-01-14T10:59:42Z</time>
      </trkpt>
      <trkpt lat="45.7617" lon="3.49482">
        <ele>437</ele>
        <time>2018-01-14T11:00:42Z</time>
      </trkpt>
      <trkpt lat="45.76169" lon="3.4946">
        <ele>437</ele>
        <time>2018-01-14T11:01:42Z</time>
      </trkpt>
      <trkpt lat="45.76167" lon="3.49439">
        <ele>436</ele>
        <time>2018-01-14T11:02:42Z</time>
      </trkpt>
      <trkpt lat="45.76164" lon="3.49404">
        <ele>436</ele>
        <time>2018-01-14T11:03:42Z</time>
      </trkpt>
      <trkpt lat="45.76151" lon="3.49298">
        <ele>431</ele>
        <time>2018-01-14T11:04:42Z</time>
      </trkpt>
      <trkpt lat="45.76141" lon="3.49226">
        <ele>426</ele>
        <time>2018-01-14T11:05:42Z</time>
      </trkpt>
      <trkpt lat="45.76137" lon="3.49196">
        <ele>423</ele>
        <time>2018-01-14T11:06:42Z</time>
      </trkpt>
      <trkpt lat="45.76132" lon="3.49177">
        <ele>421</ele>
        <time>2018-01-14T11:07:42Z</time>
      </trkpt>
      <trkpt lat="45.76124" lon="3.49168">
        <ele>420</ele>
        <time>2018-01-14T11:08:42Z</time>
      </trkpt>
      <trkpt lat="45.76114" lon="3.49165">
        <ele>420</ele>
        <time>2018-01-14T11:09:42Z</time>
      </trkpt>
      <trkpt lat="45.76081" lon="3.49157">
        <ele>419</ele>
        <time>2018-01-14T11:10:42Z</time>
      </trkpt>
      <trkpt lat="45.76068" lon="3.49155">
        <ele>420</ele>
        <time>2018-01-14T11:11:42Z</time>
      </trkpt>
      <trkpt lat="45.76058" lon="3.49152">
        <ele>421</ele>
        <time>2018-01-14T11:12:42Z</time>
      </trkpt>
      <trkpt lat="45.76056" lon="3.49144">
        <ele>421</ele>
        <time>2018-01-14T11:13:42Z</time>
      </trkpt>
      <trkpt lat="45.76057" lon="3.4913">
        <ele>420</ele>
        <time>2018-01-14T11:14:42Z</time>
      </trkpt>
      <trkpt lat="45.76066" lon="3.49118">
        <ele>418</ele>
        <time>2018-01-14T11:15:42Z</time>
      </trkpt>
      <trkpt lat="45.76078" lon="3.49106">
        <ele>415</ele>
        <time>2018-01-14T11:16:42Z</time>
      </trkpt>
      <trkpt lat="45.76086" lon="3.49094">
        <ele>414</ele>
        <time>2018-01-14T11:17:42Z</time>
      </trkpt>
      <trkpt lat="45.76094" lon="3.49077">
        <ele>412</ele>
        <time>2018-01-14T11:18:42Z</time>
      </trkpt>
      <trkpt lat="45.76102" lon="3.49057">
        <ele>411</ele>
        <time>2018-01-14T11:19:42Z</time>
      </trkpt>
      <trkpt lat="45.76108" lon="3.49037">
        <ele>409</ele>
        <time>2018-01-14T11:20:42Z</time>
      </trkpt>
      <trkpt lat="45.76111" lon="3.49024">
        <ele>407</ele>
        <time>2018-01-14T11:21:42Z</time>
      </trkpt>
      <trkpt lat="45.76112" lon="3.4901">
        <ele>406</ele>
        <time>2018-01-14T11:22:42Z</time>
      </trkpt>
      <trkpt lat="45.7611" lon="3.4899">
        <ele>404</ele>
        <time>2018-01-14T11:23:42Z</time>
      </trkpt>
      <trkpt lat="45.76106" lon="3.48981">
        <ele>403</ele>
        <time>2018-01-14T11:24:42Z</time>
      </trkpt>
      <trkpt lat="45.76097" lon="3.4897">
        <ele>402</ele>
        <time>2018-01-14T11:25:42Z</time>
      </trkpt>
      <trkpt lat="45.76085" lon="3.48958">
        <ele>401</ele>
        <time>2018-01-14T11:26:42Z</time>
      </trkpt>
      <trkpt lat="45.76076" lon="3.48948">
        <ele>401</ele>
        <time>2018-01-14T11:27:42Z</time>
      </trkpt>
      <trkpt lat="45.76067" lon="3.48932">
        <ele>399</ele>
        <time>2018-01-14T11:28:42Z</time>
      </trkpt>
      <trkpt lat="45.76061" lon="3.48923">
        <ele>399</ele>
        <time>2018-01-14T11:29:42Z</time>
      </trkpt>
      <trkpt lat="45.76052" lon="3.48901">
        <ele>397</ele>
        <time>2018-01-14T11:30:42Z</time>
      </trkpt>
      <trkpt lat="45.76044" lon="3.4887">
        <ele>395</ele>
        <time>2018-01-14T11:31:42Z</time>
      </trkpt>
      <trkpt lat="45.7604" lon="3.48853">
        <ele>394</ele>
        <time>2018-01-14T11:32:42Z</time>
      </trkpt>
      <trkpt lat="45.76042" lon="3.48844">
        <ele>393</ele>
        <time>2018-01-14T11:33:42Z</time>
      </trkpt>
      <trkpt lat="45.76048" lon="3.48835">
        <ele>391</ele>
        <time>2018-01-14T11:34:42Z</time>
      </trkpt>
      <trkpt lat="45.76059" lon="3.48814">
        <ele>391</ele>
        <time>2018-01-14T11:35:42Z</time>
      </trkpt>
      <trkpt lat="45.76066" lon="3.48793">
        <ele>393</ele>
        <time>2018-01-14T11:36:42Z</time>
      </trkpt>
      <trkpt lat="45.7607" lon="3.48785">
        <ele>394</ele>
        <time>2018-01-14T11:37:42Z</time>
      </trkpt>
      <trkpt lat="45.76063" lon="3.48775">
        <ele>395</ele>
        <time>2018-01-14T11:38:42Z</time>
      </trkpt>
      <trkpt lat="45.76022" lon="3.4873">
        <ele>398</ele>
        <time>2018-01-14T11:39:42Z</time>
      </trkpt>
      <trkpt lat="45.76017" lon="3.48726">
        <ele>398</ele>
        <time>2018-01-14T11:40:42Z</time>
      </trkpt>
      <trkpt lat="45.76002" lon="3.4872">
        <ele>398</ele>
        <time>2018-01-14T11:41:42Z</time>
      </trkpt>
      <trkpt lat="45.7599" lon="3.48712">
        <ele>399</ele>
        <time>2018-01-14T11:42:42Z</time>
      </trkpt>
      <trkpt lat="45.7598" lon="3.48701">
        <ele>401</ele>
        <time>2018-01-14T11:43:42Z</time>
      </trkpt>
      <trkpt lat="45.75974" lon="3.48688">
        <ele>402</ele>
        <time>2018-01-14T11:44:42Z</time>
      </trkpt>
      <trkpt lat="45.75964" lon="3.48664">
        <ele>403</ele>
        <time>2018-01-14T11:45:42Z</time>
      </trkpt>
      <trkpt lat="45.75954" lon="3.48649">
        <ele>404</ele>
        <time>2018-01-14T11:46:42Z</time>
      </trkpt>
      <trkpt lat="45.75947" lon="3.48638">
        <ele>404</ele>
        <time>2018-01-14T11:47:42Z</time>
      </trkpt>
      <trkpt lat="45.75938" lon="3.48623">
        <ele>404</ele>
        <time>2018-01-14T11:48:42Z</time>
      </trkpt>
      <trkpt lat="45.75933" lon="3.48612">
        <ele>404</ele>
        <time>2018-01-14T11:49:42Z</time>
      </trkpt>
      <trkpt lat="45.75929" lon="3.48592">
        <ele>404</ele>
        <time>2018-01-14T11:50:42Z</time>
      </trkpt>
      <trkpt lat="45.75923" lon="3.4854">
        <ele>409</ele>
        <time>2018-01-14T11:51:42Z</time>
      </trkpt>
      <trkpt lat="45.75909" lon="3.48503">
        <ele>411</ele>
        <time>2018-01-14T11:52:42Z</time>
      </trkpt>
      <trkpt lat="45.75894" lon="3.48477">
        <ele>414</ele>
        <time>2018-01-14T11:53:42Z</time>
      </trkpt>
      <trkpt lat="45.75878" lon="3.48456">
        <ele>415</ele>
        <time>2018-01-14T11:54:42Z</time>
      </trkpt>
      <trkpt lat="45.7587" lon="3.48439">
        <ele>416</ele>
        <time>2018-01-14T11:55:42Z</time>
      </trkpt>
      <trkpt lat="45.75865" lon="3.48406">
        <ele>417</ele>
        <time>2018-01-14T11:56:42Z</time>
      </trkpt>
      <trkpt lat="45.75866" lon="3.48381">
        <ele>419</ele>
        <time>2018-01-14T11:57:42Z</time>
      </trkpt>
      <trkpt lat="45.75872" lon="3.48352">
        <ele>422</ele>
        <time>2018-01-14T11:58:42Z</time>
      </trkpt>
      <trkpt lat="45.75881" lon="3.48329">
        <ele>426</ele>
        <time>2018-01-14T11:59:42Z</time>
      </trkpt>
      <trkpt lat="45.75911" lon="3.48312">
        <ele>436</ele>
        <time>2018-01-14T12:00:42Z</time>
      </trkpt>
      <trkpt lat="45.75929" lon="3.48303">
        <ele>440</ele>
        <time>2018-01-14T12:01:42Z</time>
      </trkpt>
      <trkpt lat="45.75942" lon="3.4829">
        <ele>443</ele>
        <time>2018-01-14T12:02:42Z</time>
      </trkpt>
      <trkpt lat="45.75955" lon="3.48275">
        <ele>445</ele>
        <time>2018-01-14T12:03:42Z</time>
      </trkpt>
      <trkpt lat="45.75959" lon="3.48261">
        <ele>446</ele>
        <time>2018-01-14T12:04:42Z</time>
      </trkpt>
      <trkpt lat="45.75959" lon="3.48247">
        <ele>446</ele>
        <time>2018-01-14T12:05:42Z</time>
      </trkpt>
      <trkpt lat="45.75958" lon="3.48232">
        <ele>447</ele>
        <time>2018-01-14T12:06:42Z</time>
      </trkpt>
      <trkpt lat="45.75954" lon="3.48217">
        <ele>447</ele>
        <time>2018-01-14T12:07:42Z</time>
      </trkpt>
      <trkpt lat="45.75956" lon="3.48209">
        <ele>448</ele>
        <time>2018-01-14T12:08:42Z</time>
      </trkpt>
      <trkpt lat="45.75962" lon="3.482">
        <ele>450</ele>
        <time>2018-01-14T12:09:42Z</time>
      </trkpt>
      <trkpt lat="45.76033" lon="3.48125">
        <ele>464</ele>
        <time>2018-01-14T12:10:42Z</time>
      </trkpt>
      <trkpt lat="45.76047" lon="3.48102">
        <ele>468</ele>
        <time>2018-01-14T12:11:42Z</time>
      </trkpt>
      <trkpt lat="45.76052" lon="3.48079">
        <ele>470</ele>
        <time>2018-01-14T12:12:42Z</time>
      </trkpt>
      <trkpt lat="45.76057" lon="3.48046">
        <ele>471</ele>
        <time>2018-01-14T12:13:42Z</time>
      </trkpt>
      <trkpt lat="45.76064" lon="3.48023">
        <ele>473</ele>
        <time>2018-01-14T12:14:42Z</time>
      </trkpt>
      <trkpt lat="45.76082" lon="3.47976">
        <ele>476</ele>
        <time>2018-01-14T12:15:42Z</time>
      </trkpt>
      <trkpt lat="45.76092" lon="3.47953">
        <ele>476</ele>
        <time>2018-01-14T12:16:42Z</time>
      </trkpt>
      <trkpt lat="45.76105" lon="3.47926">
        <ele>477</ele>
        <time>2018-01-14T12:17:42Z</time>
      </trkpt>
      <trkpt lat="45.76116" lon="3.47905">
        <ele>477</ele>
        <time>2018-01-14T12:18:42Z</time>
      </trkpt>
      <trkpt lat="45.76149" lon="3.47871">
        <ele>478</ele>
        <time>2018-01-14T12:19:42Z</time>
      </trkpt>
      <trkpt lat="45.76169" lon="3.4785">
        <ele>480</ele>
        <time>2018-01-14T12:20:42Z</time>
      </trkpt>
      <trkpt lat="45.76189" lon="3.47834">
        <ele>480</ele>
        <time>2018-01-14T12:21:42Z</time>
      </trkpt>
      <trkpt lat="45.76211" lon="3.47815">
        <ele>482</ele>
        <time>2018-01-14T12:22:42Z</time>
      </trkpt>
      <trkpt lat="45.76234" lon="3.47791">
        <ele>483</ele>
        <time>2018-01-14T12:23:42Z</time>
      </trkpt>
      <trkpt lat="45.76244" lon="3.47775">
        <ele>484</ele>
        <time>2018-01-14T12:24:42Z</time>
      </trkpt>
      <trkpt lat="45.76267" lon="3.47725">
        <ele>483</ele>
        <time>2018-01-14T12:25:42Z</time>
      </trkpt>
      <trkpt lat="45.76278" lon="3.47692">
        <ele>482</ele>
        <time>2018-01-14T12:26:42Z</time>
      </trkpt>
      <trkpt lat="45.76282" lon="3.4767">
        <ele>482</ele>
        <time>2018-01-14T12:27:42Z</time>
      </trkpt>
      <trkpt lat="45.76283" lon="3.47643">
        <ele>482</ele>
        <time>2018-01-14T12:28:42Z</time>
      </trkpt>
      <trkpt lat="45.76276" lon="3.47632">
        <ele>482</ele>
        <time>2018-01-14T12:29:42Z</time>
      </trkpt>
      <trkpt lat="45.76226" lon="3.4764">
        <ele>485</ele>
        <time>2018-01-14T12:30:42Z</time>
      </trkpt>
      <trkpt lat="45.76201" lon="3.47637">
        <ele>487</ele>
        <time>2018-01-14T12:31:42Z</time>
      </trkpt>
      <trkpt lat="45.76151" lon="3.47606">
        <ele>490</ele>
        <time>2018-01-14T12:32:42Z</time>
      </trkpt>
      <trkpt lat="45.76085" lon="3.4755">
        <ele>495</ele>
        <time>2018-01-14T12:33:42Z</time>
      </trkpt>
      <trkpt lat="45.75978" lon="3.4745">
        <ele>495</ele>
        <time>2018-01-14T12:34:42Z</time>
      </trkpt>
      <trkpt lat="45.75937" lon="3.47376">
        <ele>493</ele>
        <time>2018-01-14T12:35:42Z</time>
      </trkpt>
      <trkpt lat="45.75898" lon="3.47305">
        <ele>491</ele>
        <time>2018-01-14T12:36:42Z</time>
      </trkpt>
      <trkpt lat="45.75862" lon="3.47232">
        <ele>488</ele>
        <time>2018-01-14T12:37:42Z</time>
      </trkpt>
      <trkpt lat="45.75834" lon="3.4719">
        <ele>487</ele>
        <time>2018-01-14T12:38:42Z</time>
      </trkpt>
      <trkpt lat="45.75789" lon="3.47151">
        <ele>485</ele>
        <time>2018-01-14T12:39:42Z</time>
      </trkpt>
      <trkpt lat="45.75783" lon="3.47118">
        <ele>486</ele>
        <time>2018-01-14T12:40:42Z</time>
      </trkpt>
      <trkpt lat="45.75779" lon="3.47066">
        <ele>489</ele>
        <time>2018-01-14T12:41:42Z</time>
      </trkpt>
      <trkpt lat="45.75776" lon="3.47017">
        <ele>491</ele>
        <time>2018-01-14T12:42:42Z</time>
      </trkpt>
      <trkpt lat="45.7577" lon="3.46987">
        <ele>492</ele>
        <time>2018-01-14T12:43:42Z</time>
      </trkpt>
      <trkpt lat="45.75748" lon="3.46941">
        <ele>492</ele>
        <time>2018-01-14T12:44:42Z</time>
      </trkpt>
      <trkpt lat="45.75727" lon="3.46907">
        <ele>491</ele>
        <time>2018-01-14T12:45:42Z</time>
      </trkpt>
      <trkpt lat="45.75709" lon="3.46886">
        <ele>490</ele>
        <time>2018-01-14T12:46:42Z</time>
      </trkpt>
      <trkpt lat="45.75682" lon="3.46856">
        <ele>489</ele>
        <time>2018-01-14T12:47:42Z</time>
      </trkpt>
      <trkpt lat="45.75667" lon="3.46823">
        <ele>487</ele>
        <time>2018-01-14T12:48:42Z</time>
      </trkpt>
      <trkpt lat="45.75638" lon="3.46734">
        <ele>485</ele>
        <time>2018-01-14T12:49:42Z</time>
      </trkpt>
      <trkpt lat="45.75619" lon="3.46757">
        <ele>486</ele>
        <time>2018-01-14T12:50:42Z</time>
      </trkpt>
      <trkpt lat="45.75601" lon="3.46776">
        <ele>487</ele>
        <time>2018-01-14T12:51:42Z</time>
      </trkpt>
      <trkpt lat="45.75578" lon="3.46803">
        <ele>488</ele>
        <time>2018-01-14T12:52:42Z</time>
      </trkpt>
      <trkpt lat="45.7555" lon="3.4685">
        <ele>488</ele>
        <time>2018-01-14T12:53:42Z</time>
      </trkpt>
      <trkpt lat="45.75533" lon="3.46895">
        <ele>487</ele>
        <time>2018-01-14T12:54:42Z</time>
      </trkpt>
      <trkpt lat="45.75526" lon="3.46902">
        <ele>487</ele>
        <time>2018-01-14T12:55:42Z</time>
      </trkpt>
      <trkpt lat="45.75518" lon="3.4689">
        <ele>487</ele>
        <time>2018-01-14T12:56:42Z</time>
      </trkpt>
      <trkpt lat="45.75486" lon="3.46841">
        <ele>485</ele>
        <time>2018-01-14T12:57:42Z</time>
      </trkpt>
      <trkpt lat="45.75462" lon="3.46811">
        <ele>485</ele>
        <time>2018-01-14T12:58:42Z</time>
      </trkpt>
      <trkpt lat="45.75437" lon="3.46786">
        <ele>485</ele>
        <time>2018-01-14T12:59:42Z</time>
      </trkpt>
      <trkpt lat="45.75408" lon="3.46767">
        <ele>484</ele>
        <time>2018-01-14T13:00:42Z</time>
      </trkpt>
      <trkpt lat="45.75359" lon="3.46742">
        <ele>483</ele>
        <time>2018-01-14T13:01:42Z</time>
      </trkpt>
      <trkpt lat="45.75329" lon="3.46728">
        <ele>481</ele>
        <time>2018-01-14T13:02:42Z</time>
      </trkpt>
      <trkpt lat="45.75308" lon="3.46738">
        <ele>482</ele>
        <time>2018-01-14T13:03:42Z</time>
      </trkpt>
      <trkpt lat="45.75266" lon="3.46762">
        <ele>483</ele>
        <time>2018-01-14T13:04:42Z</time>
      </trkpt>
      <trkpt lat="45.7525" lon="3.46768">
        <ele>483</ele>
        <time>2018-01-14T13:05:42Z</time>
      </trkpt>
      <trkpt lat="45.75238" lon="3.4677">
        <ele>484</ele>
        <time>2018-01-14T13:06:42Z</time>
      </trkpt>
      <trkpt lat="45.75228" lon="3.46766">
        <ele>485</ele>
        <time>2018-01-14T13:07:42Z</time>
      </trkpt>
      <trkpt lat="45.75205" lon="3.46756">
        <ele>486</ele>
        <time>2018-01-14T13:08:42Z</time>
      </trkpt>
      <trkpt lat="45.75183" lon="3.46751">
        <ele>488</ele>
        <time>2018-01-14T13:09:42Z</time>
      </trkpt>
      <trkpt lat="45.75165" lon="3.46752">
        <ele>489</ele>
        <time>2018-01-14T13:10:42Z</time>
      </trkpt>
      <trkpt lat="45.75148" lon="3.46756">
        <ele>490</ele>
        <time>2018-01-14T13:11:42Z</time>
      </trkpt>
      <trkpt lat="45.75099" lon="3.46782">
        <ele>494</ele>
        <time>2018-01-14T13:12:42Z</time>
      </trkpt>
      <trkpt lat="45.75089" lon="3.46789">
        <ele>494</ele>
        <time>2018-01-14T13:13:42Z</time>
      </trkpt>
      <trkpt lat="45.75082" lon="3.4679">
        <ele>495</ele>
        <time>2018-01-14T13:14:42Z</time>
      </trkpt>
      <trkpt lat="45.75074" lon="3.46783">
        <ele>495</ele>
        <time>2018-01-14T13:15:42Z</time>
      </trkpt>
      <trkpt lat="45.75062" lon="3.46762">
        <ele>497</ele>
        <time>2018-01-14T13:16:42Z</time>
      </trkpt>
      <trkpt lat="45.75049" lon="3.4675">
        <ele>497</ele>
        <time>2018-01-14T13:17:42Z</time>
      </trkpt>
      <trkpt lat="45.75033" lon="3.46746">
        <ele>498</ele>
        <time>2018-01-14T13:18:42Z</time>
      </trkpt>
      <trkpt lat="45.75009" lon="3.46742">
        <ele>498</ele>
        <time>2018-01-14T13:19:42Z</time>
      </trkpt>
      <trkpt lat="45.74955" lon="3.46743">
        <ele>497</ele>
        <time>2018-01-14T13:20:42Z</time>
      </trkpt>
      <trkpt lat="45.74937" lon="3.4674">
        <ele>497</ele>
        <time>2018-01-14T13:21:42Z</time>
      </trkpt>
      <trkpt lat="45.7492" lon="3.46742">
        <ele>496</ele>
        <time>2018-01-14T13:22:42Z</time>
      </trkpt>
      <trkpt lat="45.74906" lon="3.46736">
        <ele>495</ele>
        <time>2018-01-14T13:23:42Z</time>
      </trkpt>
      <trkpt lat="45.74899" lon="3.46733">
        <ele>494</ele>
        <time>2018-01-14T13:24:42Z</time>
      </trkpt>
      <trkpt lat="45.7487" lon="3.46718">
        <ele>491</ele>
        <time>2018-01-14T13:25:42Z</time>
      </trkpt>
      <trkpt lat="45.74857" lon="3.46711">
        <ele>489</ele>
        <time>2018-01-14T13:26:42Z</time>
      </trkpt>
      <trkpt lat="45.74845" lon="3.46709">
        <ele>488</ele>
        <time>2018-01-14T13:27:42Z</time>
      </trkpt>
      <trkpt lat="45.74835" lon="3.46707">
        <ele>488</ele>
        <time>2018-01-14T13:28:42Z</time>
      </trkpt>
      <trkpt lat="45.74817" lon="3.46716">
        <ele>487</ele>
        <time>2018-01-14T13:29:42Z</time>
      </trkpt>
      <trkpt lat="45.74793" lon="3.46724">
        <ele>485</ele>
        <time>2018-01-14T13:30:42Z</time>
      </trkpt>
      <trkpt lat="45.74777" lon="3.4673">
        <ele>483</ele>
        <time>2018-01-14T13:31:42Z</time>
      </trkpt>
      <trkpt lat="45.74761" lon="3.46743">
        <ele>482</ele>
        <time>2018-01-14T13:32:42Z</time>
      </trkpt>
      <trkpt lat="45.74742" lon="3.4676">
        <ele>479</ele>
        <time>2018-01-14T13:33:42Z</time>
      </trkpt>
      <trkpt lat="45.74731" lon="3.46772">
        <ele>476</ele>
        <time>2018-01-14T13:34:42Z</time>
      </trkpt>
      <trkpt lat="45.74711" lon="3.46794">
        <ele>470</ele>
        <time>2018-01-14T13:35:42Z</time>
      </trkpt>
      <trkpt lat="45.74705" lon="3.46806">
        <ele>468</ele>
        <time>2018-01-14T13:36:42Z</time>
      </trkpt>
      <trkpt lat="45.74704" lon="3.46825">
        <ele>466</ele>
        <time>2018-01-14T13:37:42Z</time>
      </trkpt>
      <trkpt lat="45.74717" lon="3.46854">
        <ele>465</ele>
        <time>2018-01-14T13:38:42Z</time>
      </trkpt>
      <trkpt lat="45.74724" lon="3.46865">
        <ele>464</ele>
        <time>2018-01-14T13:39:42Z</time>
      </trkpt>
      <trkpt lat="45.74717" lon="3.46871">
        <ele>462</ele>
        <time>2018-01-14T13:40:42Z</time>
      </trkpt>
      <trkpt lat="45.7471" lon="3.46872">
        <ele>460</ele>
        <time>2018-01-14T13:41:42Z</time>
      </trkpt>
      <trkpt lat="45.74691" lon="3.46873">
        <ele>456</ele>
        <time>2018-01-14T13:42:42Z</time>
      </trkpt>
      <trkpt lat="45.74674" lon="3.46868">
        <ele>454</ele>
        <time>2018-01-14T13:43:42Z</time>
      </trkpt>
      <trkpt lat="45.74644" lon="3.4684">
        <ele>451</ele>
        <time>2018-01-14T13:44:42Z</time>
      </trkpt>
      <trkpt lat="45.74629" lon="3.46821">
        <ele>449</ele>
        <time>2018-01-14T13:45:42Z</time>
      </trkpt>
      <trkpt lat="45.74624" lon="3.46811">
        <ele>449</ele>
        <time>2018-01-14T13:46:42Z</time>
      </trkpt>
      <trkpt lat="45.74619" lon="3.46791">
        <ele>449</ele>
        <time>2018-01-14T13:47:42Z</time>
      </trkpt>
      <trkpt lat="45.74616" lon="3.46781">
        <ele>449</ele>
        <time>2018-01-14T13:48:42Z</time>
      </trkpt>
      <trkpt lat="45.7461" lon="3.46779">
        <ele>448</ele>
        <time>2018-01-14T13:49:42Z</time>
      </trkpt>
      <trkpt lat="45.74598" lon="3.46788">
        <ele>445</ele>
        <time>2018-01-14T13:50:42Z</time>
      </trkpt>
      <trkpt lat="45.74586" lon="3.46799">
        <ele>441</ele>
        <time>2018-01-14T13:51:42Z</time>
      </trkpt>
      <trkpt lat="45.74569" lon="3.46835">
        <ele>437</ele>
        <time>2018-01-14T13:52:42Z</time>
      </trkpt>
      <trkpt lat="45.74562" lon="3.46842">
        <ele>437</ele>
        <time>2018-01-14T13:53:42Z</time>
      </trkpt>
      <trkpt lat="45.74558" lon="3.46863">
        <ele>437</ele>
        <time>2018-01-14T13:54:42Z</time>
      </trkpt>
      <trkpt lat="45.74555" lon="3.4687">
        <ele>436</ele>
        <time>2018-01-14T13:55:42Z</time>
      </trkpt>
      <trkpt lat="45.74547" lon="3.46874">
        <ele>436</ele>
        <time>2018-01-14T13:56:42Z</time>
      </trkpt>
      <trkpt lat="45.74533" lon="3.46869">
        <ele>437</ele>
        <time>2018-01-14T13:57:42Z</time>
      </trkpt>
      <trkpt lat="45.74485" lon="3.46839">
        <ele>438</ele>
        <time>2018-01-14T13:58:42Z</time>
      </trkpt>
      <trkpt lat="45.7445" lon="3.46807">
        <ele>441</ele>
        <time>2018-01-14T13:59:42Z</time>
      </trkpt>
      <trkpt lat="45.74441" lon="3.46794">
        <ele>443</ele>
        <time>2018-01-14T14:00:42Z</time>
      </trkpt>
      <trkpt lat="45.7443" lon="3.46786">
        <ele>444</ele>
        <time>2018-01-14T14:01:42Z</time>
      </trkpt>
      <trkpt lat="45.74413" lon="3.46774">
        <ele>446</ele>
        <time>2018-01-14T14:02:42Z</time>
      </trkpt>
      <trkpt lat="45.74402" lon="3.4678">
        <ele>446</ele>
        <time>2018-01-14T14:03:42Z</time>
      </trkpt>
      <trkpt lat="45.74382" lon="3.46785">
        <ele>446</ele>
        <time>2018-01-14T14:04:42Z</time>
      </trkpt>
      <trkpt lat="45.74366" lon="3.46783">
        <ele>447</ele>
        <time>2018-01-14T14:05:42Z</time>
      </trkpt>
      <trkpt lat="45.7433" lon="3.46776">
        <ele>448</ele>
        <time>2018-01-14T14:06:42Z</time>
      </trkpt>
      <trkpt lat="45.74305" lon="3.46772">
        <ele>446</ele>
        <time>2018-01-14T14:07:42Z</time>
      </trkpt>
      <trkpt lat="45.74288" lon="3.4677">
        <ele>445</ele>
        <time>2018-01-14T14:08:42Z</time>
      </trkpt>
      <trkpt lat="45.74266" lon="3.46766">
        <ele>443</ele>
        <time>2018-01-14T14:09:42Z</time>
      </trkpt>
      <trkpt lat="45.74254" lon="3.46764">
        <ele>442</ele>
        <time>2018-01-14T14:10:42Z</time>
      </trkpt>
      <trkpt lat="45.74224" lon="3.46762">
        <ele>442</ele>
        <time>2018-01-14T14:11:42Z</time>
      </trkpt>
      <trkpt lat="45.74201" lon="3.46762">
        <ele>442</ele>
        <time>2018-01-14T14:12:42Z</time>
      </trkpt>
      <trkpt lat="45.74188" lon="3.46765">
        <ele>442</ele>
        <time>2018-01-14T14:13:42Z</time>
      </trkpt>
      <trkpt lat="45.74182" lon="3.46776">
        <ele>442</ele>
        <time>2018-01-14T14:14:42Z</time>
      </trkpt>
      <trkpt lat="45.74178" lon="3.46795">
        <ele>443</ele>
        <time>2018-01-14T14:15:42Z</time>
      </trkpt>
      <trkpt lat="45.74176" lon="3.46814">
        <ele>443</ele>
        <time>2018-01-14T14:16:42Z</time>
      </trkpt>
      <trkpt lat="45.74189" lon="3.46825">
        <ele>443</ele>
        <time>2018-01-14T14:17:42Z</time>
      </trkpt>
      <trkpt lat="45.74203" lon="3.46843">
        <ele>442</ele>
        <time>2018-01-14T14:18:42Z</time>
      </trkpt>
      <trkpt lat="45.74204" lon="3.46857">
        <ele>443</ele>
        <time>2018-01-14T14:19:42Z</time>
      </trkpt>
      <trkpt lat="45.74197" lon="3.46883">
        <ele>445</ele>
        <time>2018-01-14T14:20:42Z</time>
      </trkpt>
      <trkpt lat="45.74158" lon="3.46998">
        <ele>455</ele>
        <time>2018-01-14T14:21:42Z</time>
      </trkpt>
      <trkpt lat="45.7415" lon="3.47024">
        <ele>459</ele>
        <time>2018-01-14T14:22:42Z</time>
      </trkpt>
      <trkpt lat="45.74141" lon="3.47069">
        <ele>464</ele>
        <time>2018-01-14T14:23:42Z</time>
      </trkpt>
      <trkpt lat="45.74127" lon="3.47117">
        <ele>468</ele>
        <time>2018-01-14T14:24:42Z</time>
      </trkpt>
      <trkpt lat="45.74119" lon="3.47147">
        <ele>470</ele>
        <time>2018-01-14T14:25:42Z</time>
      </trkpt>
      <trkpt lat="45.74118" lon="3.4717">
        <ele>470</ele>
        <time>2018-01-14T14:26:42Z</time>
      </trkpt>
      <trkpt lat="45.74121" lon="3.47199">
        <ele>473</ele>
        <time>2018-01-14T14:27:42Z</time>
      </trkpt>
      <trkpt lat="45.74128" lon="3.47231">
        <ele>476</ele>
        <time>2018-01-14T14:28:42Z</time>
      </trkpt>
      <trkpt lat="45.74126" lon="3.47265">
        <ele>479</ele>
        <time>2018-01-14T14:29:42Z</time>
      </trkpt>
      <trkpt lat="45.74119" lon="3.47309">
        <ele>484</ele>
        <time>2018-01-14T14:30:42Z</time>
      </trkpt>
      <trkpt lat="45.74095" lon="3.47346">
        <ele>488</ele>
        <time>2018-01-14T14:31:42Z</time>
      </trkpt>
      <trkpt lat="45.7408" lon="3.47372">
        <ele>490</ele>
        <time>2018-01-14T14:32:42Z</time>
      </trkpt>
      <trkpt lat="45.7407" lon="3.47395">
        <ele>492</ele>
        <time>2018-01-14T14:33:42Z</time>
      </trkpt>
      <trkpt lat="45.74067" lon="3.47418">
        <ele>493</ele>
        <time>2018-01-14T14:34:42Z</time>
      </trkpt>
      <trkpt lat="45.74071" lon="3.4746">
        <ele>496</ele>
        <time>2018-01-14T14:35:42Z</time>
      </trkpt>
      <trkpt lat="45.74068" lon="3.47487">
        <ele>497</ele>
        <time>2018-01-14T14:36:42Z</time>
      </trkpt>
      <trkpt lat="45.74045" lon="3.47524">
        <ele>499</ele>
        <time>2018-01-14T14:37:42Z</time>
      </trkpt>
      <trkpt lat="45.74031" lon="3.47551">
        <ele>501</ele>
        <time>2018-01-14T14:38:42Z</time>
      </trkpt>
      <trkpt lat="45.74032" lon="3.47572">
        <ele>503</ele>
        <time>2018-01-14T14:39:42Z</time>
      </trkpt>
      <trkpt lat="45.7404" lon="3.4761">
        <ele>509</ele>
        <time>2018-01-14T14:40:42Z</time>
      </trkpt>
      <trkpt lat="45.74047" lon="3.47651">
        <ele>514</ele>
        <time>2018-01-14T14:41:42Z</time>
      </trkpt>
      <trkpt lat="45.7404" lon="3.4769">
        <ele>519</ele>
        <time>2018-01-14T14:42:42Z</time>
      </trkpt>
      <trkpt lat="45.74009" lon="3.47735">
        <ele>523</ele>
        <time>2018-01-14T14:43:42Z</time>
      </trkpt>
      <trkpt lat="45.74001" lon="3.47761">
        <ele>524</ele>
        <time>2018-01-14T14:44:42Z</time>
      </trkpt>
      <trkpt lat="45.74" lon="3.47867">
        <ele>528</ele>
        <time>2018-01-14T14:45:42Z</time>
      </trkpt>
      <trkpt lat="45.74002" lon="3.47929">
        <ele>532</ele>
        <time>2018-01-14T14:46:42Z</time>
      </trkpt>
      <trkpt lat="45.74014" lon="3.48033">
        <ele>534</ele>
        <time>2018-01-14T14:47:42Z</time>
      </trkpt>
      <trkpt lat="45.74014" lon="3.48053">
        <ele>534</ele>
        <time>2018-01-14T14:48:42Z</time>
      </trkpt>
      <trkpt lat="45.74006" lon="3.48129">
        <ele>533</ele>
        <time>2018-01-14T14:49:42Z</time>
      </trkpt>
      <trkpt lat="45.74001" lon="3.48177">
        <ele>533</ele>
        <time>2018-01-14T14:50:42Z</time>
      </trkpt>
      <trkpt lat="45.74031" lon="3.48193">
        <ele>532</ele>
        <time>2018-01-14T14:51:42Z</time>
      </trkpt>
      <trkpt lat="45.74123" lon="3.48229">
        <ele>534</ele>
        <time>2018-01-14T14:52:42Z</time>
      </trkpt>
      <trkpt lat="45.74147" lon="3.48234">
        <ele>535</ele>
        <time>2018-01-14T14:53:42Z</time>
      </trkpt>
      <trkpt lat="45.74166" lon="3.48233">
        <ele>536</ele>
        <time>2018-01-14T14:54:42Z</time>
      </trkpt>
      <trkpt lat="45.74218" lon="3.48217">
        <ele>532</ele>
        <time>2018-01-14T14:55:42Z</time>
      </trkpt>
      <trkpt lat="45.74243" lon="3.48215">
        <ele>530</ele>
        <time>2018-01-14T14:56:42Z</time>
      </trkpt>
      <trkpt lat="45.7426" lon="3.48221">
        <ele>530</ele>
        <time>2018-01-14T14:57:42Z</time>
      </trkpt>
      <trkpt lat="45.74292" lon="3.48245">
        <ele>529</ele>
        <time>2018-01-14T14:58:42Z</time>
      </trkpt>
      <trkpt lat="45.74318" lon="3.48261">
        <ele>526</ele>
        <time>2018-01-14T14:59:42Z</time>
      </trkpt>
      <trkpt lat="45.74337" lon="3.48268">
        <ele>525</ele>
        <time>2018-01-14T15:00:42Z</time>
      </trkpt>
      <trkpt lat="45.7437" lon="3.48268">
        <ele>523</ele>
        <time>2018-01-14T15:01:42Z</time>
      </trkpt>
      <trkpt lat="45.744" lon="3.48272">
        <ele>522</ele>
        <time>2018-01-14T15:02:42Z</time>
      </trkpt>
      <trkpt lat="45.74415" lon="3.48279">
        <ele>521</ele>
        <time>2018-01-14T15:03:42Z</time>
      </trkpt>
      <trkpt lat="45.74442" lon="3.48309">
        <ele>521</ele>
        <time>2018-01-14T15:04:42Z</time>
      </trkpt>
      <trkpt lat="45.74483" lon="3.48349">
        <ele>518</ele>
        <time>2018-01-14T15:05:42Z</time>
      </trkpt>
      <trkpt lat="45.74504" lon="3.4837">
        <ele>514</ele>
        <time>2018-01-14T15:06:42Z</time>
      </trkpt>
      <trkpt lat="45.74512" lon="3.48397">
        <ele>511</ele>
        <time>2018-01-14T15:07:42Z</time>
      </trkpt>
      <trkpt lat="45.7452" lon="3.48434">
        <ele>507</ele>
        <time>2018-01-14T15:08:42Z</time>
      </trkpt>
      <trkpt lat="45.74527" lon="3.48482">
        <ele>502</ele>
        <time>2018-01-14T15:09:42Z</time>
      </trkpt>
      <trkpt lat="45.74526" lon="3.48506">
        <ele>499</ele>
        <time>2018-01-14T15:10:42Z</time>
      </trkpt>
      <trkpt lat="45.74523" lon="3.48521">
        <ele>498</ele>
        <time>2018-01-14T15:11:42Z</time>
      </trkpt>
      <trkpt lat="45.74507" lon="3.48557">
        <ele>495</ele>
        <time>2018-01-14T15:12:42Z</time>
      </trkpt>
      <trkpt lat="45.74487" lon="3.48592">
        <ele>494</ele>
        <time>2018-01-14T15:13:42Z</time>
      </trkpt>
      <trkpt lat="45.74476" lon="3.4862">
        <ele>491</ele>
        <time>2018-01-14T15:14:42Z</time>
      </trkpt>
      <trkpt lat="45.74474" lon="3.48643">
        <ele>488</ele>
        <time>2018-01-14T15:15:42Z</time>
      </trkpt>
      <trkpt lat="45.74476" lon="3.48661">
        <ele>486</ele>
        <time>2018-01-14T15:16:42Z</time>
      </trkpt>
      <trkpt lat="45.74484" lon="3.48701">
        <ele>481</ele>
        <time>2018-01-14T15:17:42Z</time>
      </trkpt>
      <trkpt lat="45.74491" lon="3.48734">
        <ele>478</ele>
        <time>2018-01-14T15:18:42Z</time>
      </trkpt>
      <trkpt lat="45.74497" lon="3.48776">
        <ele>475</ele>
        <time>2018-01-14T15:19:42Z</time>
      </trkpt>
      <trkpt lat="45.74438" lon="3.48764">
        <ele>478</ele>
        <time>2018-01-14T15:20:42Z</time>
      </trkpt>
      <trkpt lat="45.74416" lon="3.48754">
        <ele>480</ele>
        <time>2018-01-14T15:21:42Z</time>
      </trkpt>
      <trkpt lat="45.74395" lon="3.48749">
        <ele>480</ele>
        <time>2018-01-14T15:22:42Z</time>
      </trkpt>
      <trkpt lat="45.74368" lon="3.48739">
        <ele>481</ele>
        <time>2018-01-14T15:23:42Z</time>
      </trkpt>
      <trkpt lat="45.74357" lon="3.48734">
        <ele>482</ele>
        <time>2018-01-14T15:24:42Z</time>
      </trkpt>
      <trkpt lat="45.74347" lon="3.4873">
        <ele>482</ele>
        <time>2018-01-14T15:25:42Z</time>
      </trkpt>
      <trkpt lat="45.74338" lon="3.48733">
        <ele>482</ele>
        <time>2018-01-14T15:26:42Z</time>
      </trkpt>
      <trkpt lat="45.74324" lon="3.48751">
        <ele>481</ele>
        <time>2018-01-14T15:27:42Z</time>
      </trkpt>
      <trkpt lat="45.74322" lon="3.48762">
        <ele>480</ele>
        <time>2018-01-14T15:28:42Z</time>
      </trkpt>
      <trkpt lat="45.74323" lon="3.48776">
        <ele>480</ele>
        <time>2018-01-14T15:29:42Z</time>
      </trkpt>
      <trkpt lat="45.74342" lon="3.4882">
        <ele>477</ele>
        <time>2018-01-14T15:30:42Z</time>
      </trkpt>
      <trkpt lat="45.74356" lon="3.48857">
        <ele>475</ele>
        <time>2018-01-14T15:31:42Z</time>
      </trkpt>
      <trkpt lat="45.74363" lon="3.48887">
        <ele>473</ele>
        <time>2018-01-14T15:32:42Z</time>
      </trkpt>
      <trkpt lat="45.74366" lon="3.48926">
        <ele>472</ele>
        <time>2018-01-14T15:33:42Z</time>
      </trkpt>
      <trkpt lat="45.74368" lon="3.48962">
        <ele>471</ele>
        <time>2018-01-14T15:34:42Z</time>
      </trkpt>
      <trkpt lat="45.74368" lon="3.48991">
        <ele>470</ele>
        <time>2018-01-14T15:35:42Z</time>
      </trkpt>
      <trkpt lat="45.74363" lon="3.49027">
        <ele>470</ele>
        <time>2018-01-14T15:36:42Z</time>
      </trkpt>
      <trkpt lat="45.74357" lon="3.49051">
        <ele>470</ele>
        <time>2018-01-14T15:37:42Z</time>
      </trkpt>
      <trkpt lat="45.74349" lon="3.49064">
        <ele>470</ele>
        <time>2018-01-14T15:38:42Z</time>
      </trkpt>
      <trkpt lat="45.74332" lon="3.49082">
        <ele>471</ele>
        <time>2018-01-14T15:39:42Z</time>
      </trkpt>
      <trkpt lat="45.74318" lon="3.49112">
        <ele>473</ele>
        <time>2018-01-14T15:40:42Z</time>
      </trkpt>
      <trkpt lat="45.7431" lon="3.49127">
        <ele>474</ele>
        <time>2018-01-14T15:41:42Z</time>
      </trkpt>
      <trkpt lat="45.74295" lon="3.49159">
        <ele>477</ele>
        <time>2018-01-14T15:42:42Z</time>
      </trkpt>
      <trkpt lat="45.74286" lon="3.49197">
        <ele>480</ele>
        <time>2018-01-14T15:43:42Z</time>
      </trkpt>
      <trkpt lat="45.74282" lon="3.49226">
        <ele>483</ele>
        <time>2018-01-14T15:44:42Z</time>
      </trkpt>
      <trkpt lat="45.7428" lon="3.49265">
        <ele>486</ele>
        <time>2018-01-14T15:45:42Z</time>
      </trkpt>
      <trkpt lat="45.74279" lon="3.49286">
        <ele>487</ele>
        <time>2018-01-14T15:46:42Z</time>
      </trkpt>
      <trkpt lat="45.74274" lon="3.49317">
        <ele>489</ele>
        <time>2018-01-14T15:47:42Z</time>
      </trkpt>
      <trkpt lat="45.74273" lon="3.4934">
        <ele>490</ele>
        <time>2018-01-14T15:48:42Z</time>
      </trkpt>
      <trkpt lat="45.74269" lon="3.49353">
        <ele>491</ele>
        <time>2018-01-14T15:49:42Z</time>
      </trkpt>
      <trkpt lat="45.74256" lon="3.49347">
        <ele>491</ele>
        <time>2018-01-14T15:50:42Z</time>
      </trkpt>
      <trkpt lat="45.74227" lon="3.49347">
        <ele>493</ele>
        <time>2018-01-14T15:51:42Z</time>
      </trkpt>
      <trkpt lat="45.74177" lon="3.4935">
        <ele>495</ele>
        <time>2018-01-14T15:52:42Z</time>
      </trkpt>
      <trkpt lat="45.74135" lon="3.49356">
        <ele>496</ele>
        <time>2018-01-14T15:53:42Z</time>
      </trkpt>
      <trkpt lat="45.74108" lon="3.4938">
        <ele>498</ele>
        <time>2018-01-14T15:54:42Z</time>
      </trkpt>
      <trkpt lat="45.74086" lon="3.49408">
        <ele>500</ele>
        <time>2018-01-14T15:55:42Z</time>
      </trkpt>
      <trkpt lat="45.74074" lon="3.49422">
        <ele>500</ele>
        <time>2018-01-14T15:56:42Z</time>
      </trkpt>
      <trkpt lat="45.74062" lon="3.49428">
        <ele>500</ele>
        <time>2018-01-14T15:57:42Z</time>
      </trkpt>
      <trkpt lat="45.74028" lon="3.4943">
        <ele>500</ele>
        <time>2018-01-14T15:58:42Z</time>
      </trkpt>
      <trkpt lat="45.74004" lon="3.49439">
        <ele>500</ele>
        <time>2018-01-14T15:59:42Z</time>
      </trkpt>
      <trkpt lat="45.73975" lon="3.49456">
        <ele>500</ele>
        <time>2018-01-14T16:00:42Z</time>
      </trkpt>
      <trkpt lat="45.73917" lon="3.49493">
        <ele>498</ele>
        <time>2018-01-14T16:01:42Z</time>
      </trkpt>
      <trkpt lat="45.73847" lon="3.4954">
        <ele>497</ele>
        <time>2018-01-14T16:02:42Z</time>
      </trkpt>
      <trkpt lat="45.73755" lon="3.49605">
        <ele>494</ele>
        <time>2018-01-14T16:03:42Z</time>
      </trkpt>
      <trkpt lat="45.73731" lon="3.49623">
        <ele>491</ele>
        <time>2018-01-14T16:04:42Z</time>
      </trkpt>
      <trkpt lat="45.73715" lon="3.4963">
        <ele>489</ele>
        <time>2018-01-14T16:05:42Z</time>
      </trkpt>
      <trkpt lat="45.73688" lon="3.49641">
        <ele>487</ele>
        <time>2018-01-14T16:06:42Z</time>
      </trkpt>
      <trkpt lat="45.7365" lon="3.49651">
        <ele>484</ele>
        <time>2018-01-14T16:07:42Z</time>
      </trkpt>
      <trkpt lat="45.73568" lon="3.49677">
        <ele>476</ele>
        <time>2018-01-14T16:08:42Z</time>
      </trkpt>
      <trkpt lat="45.73561" lon="3.49692">
        <ele>475</ele>
        <time>2018-01-14T16:09:42Z</time>
      </trkpt>
      <trkpt lat="45.73554" lon="3.49739">
        <ele>472</ele>
        <time>2018-01-14T16:10:42Z</time>
      </trkpt>
      <trkpt lat="45.7355" lon="3.49774">
        <ele>470</ele>
        <time>2018-01-14T16:11:42Z</time>
      </trkpt>
      <trkpt lat="45.73548" lon="3.49799">
        <ele>467</ele>
        <time>2018-01-14T16:12:42Z</time>
      </trkpt>
      <trkpt lat="45.73554" lon="3.49812">
        <ele>466</ele>
        <time>2018-01-14T16:13:42Z</time>
      </trkpt>
      <trkpt lat="45.7359" lon="3.49843">
        <ele>461</ele>
        <time>2018-01-14T16:14:42Z</time>
      </trkpt>
      <trkpt lat="45.73635" lon="3.4988">
        <ele>458</ele>
        <time>2018-01-14T16:15:42Z</time>
      </trkpt>
      <trkpt lat="45.73655" lon="3.49901">
        <ele>456</ele>
        <time>2018-01-14T16:16:42Z</time>
      </trkpt>
      <trkpt lat="45.73662" lon="3.49913">
        <ele>454</ele>
        <time>2018-01-14T16:17:42Z</time>
      </trkpt>
      <trkpt lat="45.73671" lon="3.49935">
        <ele>451</ele>
        <time>2018-01-14T16:18:42Z</time>
      </trkpt>
      <trkpt lat="45.73678" lon="3.4996">
        <ele>448</ele>
        <time>2018-01-14T16:19:42Z</time>
      </trkpt>
      <trkpt lat="45.73689" lon="3.49972">
        <ele>447</ele>
        <time>2018-01-14T16:20:42Z</time>
      </trkpt>
      <trkpt lat="45.73709" lon="3.4997">
        <ele>448</ele>
        <time>2018-01-14T16:21:42Z</time>
      </trkpt>
      <trkpt lat="45.73726" lon="3.49974">
        <ele>449</ele>
        <time>2018-01-14T16:22:42Z</time>
      </trkpt>
      <trkpt lat="45.73732" lon="3.49984">
        <ele>448</ele>
        <time>2018-01-14T16:23:42Z</time>
      </trkpt>
      <trkpt lat="45.73735" lon="3.50007">
        <ele>447</ele>
        <time>2018-01-14T16:24:42Z</time>
      </trkpt>
      <trkpt lat="45.73737" lon="3.5004">
        <ele>446</ele>
        <time>2018-01-14T16:25:42Z</time>
      </trkpt>
      <trkpt lat="45.73745" lon="3.50079">
        <ele>446</ele>
        <time>2018-01-14T16:26:42Z</time>
      </trkpt>
      <trkpt lat="45.73756" lon="3.50124">
        <ele>446</ele>
        <time>2018-01-14T16:27:42Z</time>
      </trkpt>
      <trkpt lat="45.73761" lon="3.50163">
        <ele>445</ele>
        <time>2018-01-14T16:28:42Z</time>
      </trkpt>
      <trkpt lat="45.73761" lon="3.50196">
        <ele>445</ele>
        <time>2018-01-14T16:29:42Z</time>
      </trkpt>
      <trkpt lat="45.73757" lon="3.50212">
        <ele>445</ele>
        <time>2018-01-14T16:30:42Z</time>
      </trkpt>
      <trkpt lat="45.73744" lon="3.50227">
        <ele>445</ele>
        <time>2018-01-14T16:31:42Z</time>
      </trkpt>
      <trkpt lat="45.73731" lon="3.50233">
        <ele>445</ele>
        <time>2018-01-14T16:32:42Z</time>
      </trkpt>
      <trkpt lat="45.73714" lon="3.50231">
        <ele>445</ele>
        <time>2018-01-14T16:33:42Z</time>
      </trkpt>
      <trkpt lat="45.73681" lon="3.50218">
        <ele>445</ele>
        <time>2018-01-14T16:34:42Z</time>
      </trkpt>
      <trkpt lat="45.73653" lon="3.50212">
        <ele>445</ele>
        <time>2018-01-14T16:35:42Z</time>
      </trkpt>
      <trkpt lat="45.73631" lon="3.50209">
        <ele>444</ele>
        <time>2018-01-14T16:36:42Z</time>
      </trkpt>
      <trkpt lat="45.73608" lon="3.50215">
        <ele>445</ele>
        <time>2018-01-14T16:37:42Z</time>
      </trkpt>
      <trkpt lat="45.73555" lon="3.50242">
        <ele>447</ele>
        <time>2018-01-14T16:38:42Z</time>
      </trkpt>
      <trkpt lat="45.73532" lon="3.50254">
        <ele>447</ele>
        <time>2018-01-14T16:39:42Z</time>
      </trkpt>
      <trkpt lat="45.73523" lon="3.50268">
        <ele>447</ele>
        <time>2018-01-14T16:40:42Z</time>
      </trkpt>
      <trkpt lat="45.73499" lon="3.50313">
        <ele>448</ele>
        <time>2018-01-14T16:41:42Z</time>
      </trkpt>
      <trkpt lat="45.73491" lon="3.50333">
        <ele>448</ele>
        <time>2018-01-14T16:42:42Z</time>
      </trkpt>
      <trkpt lat="45.73479" lon="3.50338">
        <ele>448</ele>
        <time>2018-01-14T16:43:42Z</time>
      </trkpt>
      <trkpt lat="45.73463" lon="3.50345">
        <ele>448</ele>
        <time>2018-01-14T16:44:42Z</time>
      </trkpt>
      <trkpt lat="45.73459" lon="3.50355">
        <ele>447</ele>
        <time>2018-01-14T16:45:42Z</time>
      </trkpt>
      <trkpt lat="45.73462" lon="3.50374">
        <ele>445</ele>
        <time>2018-01-14T16:46:42Z</time>
      </trkpt>
      <trkpt lat="45.73467" lon="3.50403">
        <ele>443</ele>
        <time>2018-01-14T16:47:42Z</time>
      </trkpt>
      <trkpt lat="45.73469" lon="3.50424">
        <ele>442</ele>
        <time>2018-01-14T16:48:42Z</time>
      </trkpt>
      <trkpt lat="45.73471" lon="3.50445">
        <ele>442</ele>
        <time>2018-01-14T16:49:42Z</time>
      </trkpt>
      <trkpt lat="45.73494" lon="3.50453">
        <ele>444</ele>
        <time>2018-01-14T16:50:42Z</time>
      </trkpt>
      <trkpt lat="45.73519" lon="3.50457">
        <ele>446</ele>
        <time>2018-01-14T16:51:42Z</time>
      </trkpt>
      <trkpt lat="45.73541" lon="3.50468">
        <ele>448</ele>
        <time>2018-01-14T16:52:42Z</time>
      </trkpt>
      <trkpt lat="45.73559" lon="3.50479">
        <ele>450</ele>
        <time>2018-01-14T16:53:42Z</time>
      </trkpt>
      <trkpt lat="45.73577" lon="3.50494">
        <ele>452</ele>
        <time>2018-01-14T16:54:42Z</time>
      </trkpt>
      <trkpt lat="45.73592" lon="3.50505">
        <ele>453</ele>
        <time>2018-01-14T16:55:42Z</time>
      </trkpt>
      <trkpt lat="45.73644" lon="3.50536">
        <ele>456</ele>
        <time>2018-01-14T16:56:42Z</time>
      </trkpt>
      <trkpt lat="45.73675" lon="3.50583">
        <ele>458</ele>
        <time>2018-01-14T16:57:42Z</time>
      </trkpt>
      <trkpt lat="45.73696" lon="3.50616">
        <ele>459</ele>
        <time>2018-01-14T16:58:42Z</time>
      </trkpt>
      <trkpt lat="45.7375" lon="3.50672">
        <ele>461</ele>
        <time>2018-01-14T16:59:42Z</time>
      </trkpt>
      <trkpt lat="45.73815" lon="3.50747">
        <ele>462</ele>
        <time>2018-01-14T17:00:42Z</time>
      </trkpt>
      <trkpt lat="45.73892" lon="3.50834">
        <ele>465</ele>
        <time>2018-01-14T17:01:42Z</time>
      </trkpt>
      <trkpt lat="45.73893" lon="3.50844">
        <ele>465</ele>
        <time>2018-01-14T17:02:42Z</time>
      </trkpt>
      <trkpt lat="45.73887" lon="3.50865">
        <ele>466</ele>
        <time>2018-01-14T17:03:42Z</time>
      </trkpt>
      <trkpt lat="45.7387" lon="3.50906">
        <ele>467</ele>
        <time>2018-01-14T17:04:42Z</time>
      </trkpt>
      <trkpt lat="45.7385" lon="3.50946">
        <ele>469</ele>
        <time>2018-01-14T17:05:42Z</time>
      </trkpt>
      <trkpt lat="45.73824" lon="3.50988">
        <ele>471</ele>
        <time>2018-01-14T17:06:42Z</time>
      </trkpt>
      <trkpt lat="45.73796" lon="3.51029">
        <ele>474</ele>
        <time>2018-01-14T17:07:42Z</time>
      </trkpt>
      <trkpt lat="45.73772" lon="3.51064">
        <ele>476</ele>
        <time>2018-01-14T17:08:42Z</time>
      </trkpt>
      <trkpt lat="45.73753" lon="3.51087">
        <ele>477</ele>
        <time>2018-01-14T17:09:42Z</time>
      </trkpt>
      <trkpt lat="45.73726" lon="3.51116">
        <ele>476</ele>
        <time>2018-01-14T17:10:42Z</time>
      </trkpt>
      <trkpt lat="45.73701" lon="3.5114">
        <ele>474</ele>
        <time>2018-01-14T17:11:42Z</time>
      </trkpt>
      <trkpt lat="45.73659" lon="3.51171">
        <ele>473</ele>
        <time>2018-01-14T17:12:42Z</time>
      </trkpt>
      <trkpt lat="45.73625" lon="3.51196">
        <ele>471</ele>
        <time>2018-01-14T17:13:42Z</time>
      </trkpt>
      <trkpt lat="45.73615" lon="3.51207">
        <ele>471</ele>
        <time>2018-01-14T17:14:42Z</time>
      </trkpt>
      <trkpt lat="45.73603" lon="3.51226">
        <ele>470</ele>
        <time>2018-01-14T17:15:42Z</time>
      </trkpt>
      <trkpt lat="45.73605" lon="3.51242">
        <ele>470</ele>
        <time>2018-01-14T17:16:42Z</time>
      </trkpt>
      <trkpt lat="45.73614" lon="3.51248">
        <ele>470</ele>
        <time>2018-01-14T17:17:42Z</time>
      </trkpt>
      <trkpt lat="45.73663" lon="3.5124">
        <ele>468</ele>
        <time>2018-01-14T17:18:42Z</time>
      </trkpt>
      <trkpt lat="45.73714" lon="3.51244">
        <ele>470</ele>
        <time>2018-01-14T17:19:42Z</time>
      </trkpt>
      <trkpt lat="45.73734" lon="3.51251">
        <ele>471</ele>
        <time>2018-01-14T17:20:42Z</time>
      </trkpt>
      <trkpt lat="45.7377" lon="3.51271">
        <ele>472</ele>
        <time>2018-01-14T17:21:42Z</time>
      </trkpt>
      <trkpt lat="45.73838" lon="3.51297">
        <ele>476</ele>
        <time>2018-01-14T17:22:42Z</time>
      </trkpt>
      <trkpt lat="45.73906" lon="3.51324">
        <ele>479</ele>
        <time>2018-01-14T17:23:42Z</time>
      </trkpt>
      <trkpt lat="45.73925" lon="3.51328">
        <ele>479</ele>
        <time>2018-01-14T17:24:42Z</time>
      </trkpt>
      <trkpt lat="45.73971" lon="3.51314">
        <ele>480</ele>
        <time>2018-01-14T17:25:42Z</time>
      </trkpt>
      <trkpt lat="45.73971" lon="3.51344">
        <ele>479</ele>
        <time>2018-01-14T17:26:42Z</time>
      </trkpt>
      <trkpt lat="45.73966" lon="3.51424">
        <ele>475</ele>
        <time>2018-01-14T17:27:42Z</time>
      </trkpt>
      <trkpt lat="45.73963" lon="3.51467">
        <ele>474</ele>
        <time>2018-01-14T17:28:42Z</time>
      </trkpt>
      <trkpt lat="45.7396" lon="3.51496">
        <ele>473</ele>
        <time>2018-01-14T17:29:42Z</time>
      </trkpt>
      <trkpt lat="45.7395" lon="3.5157">
        <ele>470</ele>
        <time>2018-01-14T17:30:42Z</time>
      </trkpt>
      <trkpt lat="45.7394" lon="3.51648">
        <ele>470</ele>
        <time>2018-01-14T17:31:42Z</time>
      </trkpt>
      <trkpt lat="45.73924" lon="3.51731">
        <ele>467</ele>
        <time>2018-01-14T17:32:42Z</time>
      </trkpt>
      <trkpt lat="45.73893" lon="3.51869">
        <ele>461</ele>
        <time>2018-01-14T17:33:42Z</time>
      </trkpt>
      <trkpt lat="45.73872" lon="3.51941">
        <ele>459</ele>
        <time>2018-01-14T17:34:42Z</time>
      </trkpt>
      <trkpt lat="45.73856" lon="3.51986">
        <ele>458</ele>
        <time>2018-01-14T17:35:42Z</time>
      </trkpt>
      <trkpt lat="45.73847" lon="3.5201">
        <ele>457</ele>
        <time>2018-01-14T17:36:42Z</time>
      </trkpt>
      <trkpt lat="45.73831" lon="3.52029">
        <ele>456</ele>
        <time>2018-01-14T17:37:42Z</time>
      </trkpt>
      <trkpt lat="45.73826" lon="3.5204">
        <ele>455</ele>
        <time>2018-01-14T17:38:42Z</time>
      </trkpt>
      <trkpt lat="45.73826" lon="3.52049">
        <ele>455</ele>
        <time>2018-01-14T17:39:42Z</time>
      </trkpt>
      <trkpt lat="45.73854" lon="3.52057">
        <ele>455</ele>
        <time>2018-01-14T17:40:42Z</time>
      </trkpt>
      <trkpt lat="45.73905" lon="3.52064">
        <ele>453</ele>
        <time>2018-01-14T17:41:42Z</time>
      </trkpt>
      <trkpt lat="45.73946" lon="3.52063">
        <ele>452</ele>
        <time>2018-01-14T17:42:42Z</time>
      </trkpt>
      <trkpt lat="45.73985" lon="3.52066">
        <ele>450</ele>
        <time>2018-01-14T17:43:42Z</time>
      </trkpt>
      <trkpt lat="45.74011" lon="3.52067">
        <ele>449</ele>
        <time>2018-01-14T17:44:42Z</time>
      </trkpt>
      <trkpt lat="45.74026" lon="3.52075">
        <ele>448</ele>
        <time>2018-01-14T17:45:42Z</time>
      </trkpt>
      <trkpt lat="45.74035" lon="3.52088">
        <ele>446</ele>
        <time>2018-01-14T17:46:42Z</time>
      </trkpt>
      <trkpt lat="45.74044" lon="3.52108">
        <ele>443</ele>
        <time>2018-01-14T17:47:42Z</time>
      </trkpt>
      <trkpt lat="45.74052" lon="3.52126">
        <ele>440</ele>
        <time>2018-01-14T17:48:42Z</time>
      </trkpt>
      <trkpt lat="45.7406" lon="3.52149">
        <ele>437</ele>
        <time>2018-01-14T17:49:42Z</time>
      </trkpt>
      <trkpt lat="45.74073" lon="3.52174">
        <ele>433</ele>
        <time>2018-01-14T17:50:42Z</time>
      </trkpt>
      <trkpt lat="45.74091" lon="3.52196">
        <ele>431</ele>
        <time>2018-01-14T17:51:42Z</time>
      </trkpt>
      <trkpt lat="45.74105" lon="3.52215">
        <ele>429</ele>
        <time>2018-01-14T17:52:42Z</time>
      </trkpt>
      <trkpt lat="45.74108" lon="3.52226">
        <ele>428</ele>
        <time>2018-01-14T17:53:42Z</time>
      </trkpt>
      <trkpt lat="45.74105" lon="3.5226">
        <ele>423</ele>
        <time>2018-01-14T17:54:42Z</time>
      </trkpt>
      <trkpt lat="45.741" lon="3.52289">
        <ele>418</ele>
        <time>2018-01-14T17:55:42Z</time>
      </trkpt>
      <trkpt lat="45.74098" lon="3.52316">
        <ele>413</ele>
        <time>2018-01-14T17:56:42Z</time>
      </trkpt>
      <trkpt lat="45.741" lon="3.52337">
        <ele>410</ele>
        <time>2018-01-14T17:57:42Z</time>
      </trkpt>
      <trkpt lat="45.74109" lon="3.52366">
        <ele>407</ele>
        <time>2018-01-14T17:58:42Z</time>
      </trkpt>
      <trkpt lat="45.74123" lon="3.52391">
        <ele>406</ele>
        <time>2018-01-14T17:59:42Z</time>
      </trkpt>
      <trkpt lat="45.74147" lon="3.52415">
        <ele>405</ele>
        <time>2018-01-14T18:00:42Z</time>
      </trkpt>
      <trkpt lat="45.74176" lon="3.52437">
        <ele>403</ele>
        <time>2018-01-14T18:01:42Z</time>
      </trkpt>
      <trkpt lat="45.74191" lon="3.52446">
        <ele>402</ele>
        <time>2018-01-14T18:02:42Z</time>
      </trkpt>
      <trkpt lat="45.74208" lon="3.52447">
        <ele>401</ele>
        <time>2018-01-14T18:03:42Z</time>
      </trkpt>
      <trkpt lat="45.74239" lon="3.52433">
        <ele>401</ele>
        <time>2018-01-14T18:04:42Z</time>
      </trkpt>
      <trkpt lat="45.74249" lon="3.52421">
        <ele>401</ele>
        <time>2018-01-14T18:05:42Z</time>
      </trkpt>
      <trkpt lat="45.74252" lon="3.52413">
        <ele>401</ele>
        <time>2018-01-14T18:06:42Z</time>
      </trkpt>
      <trkpt lat="45.74256" lon="3.52374">
        <ele>403</ele>
        <time>2018-01-14T18:07:42Z</time>
      </trkpt>
      <trkpt lat="45.74255" lon="3.5233">
        <ele>406</ele>
        <time>2018-01-14T18:08:42Z</time>
      </trkpt>
      <trkpt lat="45.74256" lon="3.52297">
        <ele>407</ele>
        <time>2018-01-14T18:09:42Z</time>
      </trkpt>
      <trkpt lat="45.74262" lon="3.52267">
        <ele>409</ele>
        <time>2018-01-14T18:10:42Z</time>
      </trkpt>
      <trkpt lat="45.74266" lon="3.5226">
        <ele>409</ele>
        <time>2018-01-14T18:11:42Z</time>
      </trkpt>
      <trkpt lat="45.74276" lon="3.52261">
        <ele>409</ele>
        <time>2018-01-14T18:12:42Z</time>
      </trkpt>
      <trkpt lat="45.74285" lon="3.52268">
        <ele>409</ele>
        <time>2018-01-14T18:13:42Z</time>
      </trkpt>
      <trkpt lat="45.74292" lon="3.52289">
        <ele>406</ele>
        <time>2018-01-14T18:14:42Z</time>
      </trkpt>
      <trkpt lat="45.74307" lon="3.52302">
        <ele>405</ele>
        <time>2018-01-14T18:15:42Z</time>
      </trkpt>
      <trkpt lat="45.74319" lon="3.52317">
        <ele>402</ele>
        <time>2018-01-14T18:16:42Z</time>
      </trkpt>
      <trkpt lat="45.7433" lon="3.52334">
        <ele>399</ele>
        <time>2018-01-14T18:17:42Z</time>
      </trkpt>
      <trkpt lat="45.74341" lon="3.52353">
        <ele>397</ele>
        <time>2018-01-14T18:18:42Z</time>
      </trkpt>
      <trkpt lat="45.74368" lon="3.52362">
        <ele>397</ele>
        <time>2018-01-14T18:19:42Z</time>
      </trkpt>
      <trkpt lat="45.7438" lon="3.5237">
        <ele>396</ele>
        <time>2018-01-14T18:20:42Z</time>
      </trkpt>
      <trkpt lat="45.74388" lon="3.52387">
        <ele>394</ele>
        <time>2018-01-14T18:21:42Z</time>
      </trkpt>
      <trkpt lat="45.74402" lon="3.52407">
        <ele>392</ele>
        <time>2018-01-14T18:22:42Z</time>
      </trkpt>
      <trkpt lat="45.74418" lon="3.52423">
        <ele>391</ele>
        <time>2018-01-14T18:23:42Z</time>
      </trkpt>
      <trkpt lat="45.74432" lon="3.52428">
        <ele>390</ele>
        <time>2018-01-14T18:24:42Z</time>
      </trkpt>
      <trkpt lat="45.74455" lon="3.52425">
        <ele>391</ele>
        <time>2018-01-14T18:25:42Z</time>
      </trkpt>
      <trkpt lat="45.74468" lon="3.52421">
        <ele>391</ele>
        <time>2018-01-14T18:26:42Z</time>
      </trkpt>
      <trkpt lat="45.74489" lon="3.52428">
        <ele>391</ele>
        <time>2018-01-14T18:27:42Z</time>
      </trkpt>
      <trkpt lat="45.74508" lon="3.52438">
        <ele>392</ele>
        <time>2018-01-14T18:28:42Z</time>
      </trkpt>
      <trkpt lat="45.74517" lon="3.52453">
        <ele>393</ele>
        <time>2018-01-14T18:29:42Z</time>
      </trkpt>
      <trkpt lat="45.74519" lon="3.5247">
        <ele>392</ele>
        <time>2018-01-14T18:30:42Z</time>
      </trkpt>
      <trkpt lat="45.74522" lon="3.52493">
        <ele>392</ele>
        <time>2018-01-14T18:31:42Z</time>
      </trkpt>
      <trkpt lat="45.7453" lon="3.52523">
        <ele>392</ele>
        <time>2018-01-14T18:32:42Z</time>
      </trkpt>
      <trkpt lat="45.74546" lon="3.52546">
        <ele>393</ele>
        <time>2018-01-14T18:33:42Z</time>
      </trkpt>
      <trkpt lat="45.74568" lon="3.52571">
        <ele>395</ele>
        <time>2018-01-14T18:34:42Z</time>
      </trkpt>
      <trkpt lat="45.74592" lon="3.52597">
        <ele>395</ele>
        <time>2018-01-14T18:35:42Z</time>
      </trkpt>
      <trkpt lat="45.74617" lon="3.52624">
        <ele>394</ele>
        <time>2018-01-14T18:36:42Z</time>
      </trkpt>
      <trkpt lat="45.74631" lon="3.52642">
        <ele>394</ele>
        <time>2018-01-14T18:37:42Z</time>
      </trkpt>
      <trkpt lat="45.74646" lon="3.52669">
        <ele>392</ele>
        <time>2018-01-14T18:38:42Z</time>
      </trkpt>
      <trkpt lat="45.74664" lon="3.52682">
        <ele>390</ele>
        <time>2018-01-14T18:39:42Z</time>
      </trkpt>
      <trkpt lat="45.74688" lon="3.52696">
        <ele>386</ele>
        <time>2018-01-14T18:40:42Z</time>
      </trkpt>
      <trkpt lat="45.74711" lon="3.52707">
        <ele>384</ele>
        <time>2018-01-14T18:41:42Z</time>
      </trkpt>
      <trkpt lat="45.74704" lon="3.52682">
        <ele>390</ele>
        <time>2018-01-14T18:42:42Z</time>
      </trkpt>
      <trkpt lat="45.74701" lon="3.52641">
        <ele>397</ele>
        <time>2018-01-14T18:43:42Z</time>
      </trkpt>
      <trkpt lat="45.74701" lon="3.5262">
        <ele>399</ele>
        <time>2018-01-14T18:44:42Z</time>
      </trkpt>
      <trkpt lat="45.74701" lon="3.526">
        <ele>401</ele>
        <time>2018-01-14T18:45:42Z</time>
      </trkpt>
      <trkpt lat="45.74702" lon="3.52572">
        <ele>403</ele>
        <time>2018-01-14T18:46:42Z</time>
      </trkpt>
      <trkpt lat="45.74705" lon="3.52549">
        <ele>406</ele>
        <time>2018-01-14T18:47:42Z</time>
      </trkpt>
      <trkpt lat="45.7471" lon="3.52525">
        <ele>408</ele>
        <time>2018-01-14T18:48:42Z</time>
      </trkpt>
      <trkpt lat="45.74711" lon="3.52498">
        <ele>411</ele>
        <time>2018-01-14T18:49:42Z</time>
      </trkpt>
      <trkpt lat="45.74715" lon="3.52464">
        <ele>415</ele>
        <time>2018-01-14T18:50:42Z</time>
      </trkpt>
      <trkpt lat="45.74717" lon="3.52444">
        <ele>416</ele>
        <time>2018-01-14T18:51:42Z</time>
      </trkpt>
      <trkpt lat="45.74725" lon="3.52425">
        <ele>419</ele>
        <time>2018-01-14T18:52:42Z</time>
      </trkpt>
      <trkpt lat="45.74738" lon="3.52423">
        <ele>420</ele>
        <time>2018-01-14T18:53:42Z</time>
      </trkpt>
      <trkpt lat="45.7475" lon="3.52437">
        <ele>419</ele>
        <time>2018-01-14T18:54:42Z</time>
      </trkpt>
      <trkpt lat="45.74763" lon="3.52442">
        <ele>417</ele>
        <time>2018-01-14T18:55:42Z</time>
      </trkpt>
      <trkpt lat="45.74771" lon="3.52431">
        <ele>418</ele>
        <time>2018-01-14T18:56:42Z</time>
      </trkpt>
      <trkpt lat="45.74781" lon="3.52402">
        <ele>420</ele>
        <time>2018-01-14T18:57:42Z</time>
      </trkpt>
      <trkpt lat="45.74792" lon="3.52338">
        <ele>427</ele>
        <time>2018-01-14T18:58:42Z</time>
      </trkpt>
      <trkpt lat="45.74797" lon="3.52326">
        <ele>428</ele>
        <time>2018-01-14T18:59:42Z</time>
      </trkpt>
      <trkpt lat="45.74805" lon="3.52323">
        <ele>428</ele>
        <time>2018-01-14T19:00:42Z</time>
      </trkpt>
      <trkpt lat="45.74813" lon="3.52327">
        <ele>427</ele>
        <time>2018-01-14T19:01:42Z</time>
      </trkpt>
      <trkpt lat="45.74818" lon="3.52356">
        <ele>423</ele>
        <time>2018-01-14T19:02:42Z</time>
      </trkpt>
      <trkpt lat="45.74823" lon="3.524">
        <ele>418</ele>
        <time>2018-01-14T19:03:42Z</time>
      </trkpt>
      <trkpt lat="45.74827" lon="3.52427">
        <ele>414</ele>
        <time>2018-01-14T19:04:42Z</time>
      </trkpt>
      <trkpt lat="45.74834" lon="3.52448">
        <ele>411</ele>
        <time>2018-01-14T19:05:42Z</time>
      </trkpt>
      <trkpt lat="45.7484" lon="3.52472">
        <ele>409</ele>
        <time>2018-01-14T19:06:42Z</time>
      </trkpt>
      <trkpt lat="45.74852" lon="3.52499">
        <ele>406</ele>
        <time>2018-01-14T19:07:42Z</time>
      </trkpt>
      <trkpt lat="45.74879" lon="3.52537">
        <ele>401</ele>
        <time>2018-01-14T19:08:42Z</time>
      </trkpt>
      <trkpt lat="45.74887" lon="3.52546">
        <ele>399</ele>
        <time>2018-01-14T19:09:42Z</time>
      </trkpt>
      <trkpt lat="45.74905" lon="3.52566">
        <ele>395</ele>
        <time>2018-01-14T19:10:42Z</time>
      </trkpt>
      <trkpt lat="45.74929" lon="3.52589">
        <ele>391</ele>
        <time>2018-01-14T19:11:42Z</time>
      </trkpt>
      <trkpt lat="45.74938" lon="3.52598">
        <ele>390</ele>
        <time>2018-01-14T19:12:42Z</time>
      </trkpt>
      <trkpt lat="45.7495" lon="3.52611">
        <ele>389</ele>
        <time>2018-01-14T19:13:42Z</time>
      </trkpt>
      <trkpt lat="45.74971" lon="3.52636">
        <ele>388</ele>
        <time>2018-01-14T19:14:42Z</time>
      </trkpt>
      <trkpt lat="45.74993" lon="3.52665">
        <ele>386</ele>
        <time>2018-01-14T19:15:42Z</time>
      </trkpt>
      <trkpt lat="45.75024" lon="3.52716">
        <ele>383</ele>
        <time>2018-01-14T19:16:42Z</time>
      </trkpt>
      <trkpt lat="45.75039" lon="3.52738">
        <ele>381</ele>
        <time>2018-01-14T19:17:42Z</time>
      </trkpt>
      <trkpt lat="45.75061" lon="3.52744">
        <ele>381</ele>
        <time>2018-01-14T19:18:42Z</time>
      </trkpt>
      <trkpt lat="45.75099" lon="3.52747">
        <ele>381</ele>
        <time>2018-01-14T19:19:42Z</time>
      </trkpt>
      <trkpt lat="45.75177" lon="3.52769">
        <ele>376</ele>
        <time>2018-01-14T19:20:42Z</time>
      </trkpt>
      <trkpt lat="45.75195" lon="3.52769">
        <ele>375</ele>
        <time>2018-01-14T19:21:42Z</time>
      </trkpt>
      <trkpt lat="45.75213" lon="3.52755">
        <ele>375</ele>
        <time>2018-01-14T19:22:42Z</time>
      </trkpt>
      <trkpt lat="45.75228" lon="3.52742">
        <ele>375</ele>
        <time>2018-01-14T19:23:42Z</time>
      </trkpt>
      <trkpt lat="45.75244" lon="3.52737">
        <ele>374</ele>
        <time>2018-01-14T19:24:42Z</time>
      </trkpt>
      <trkpt lat="45.75278" lon="3.52767">
        <ele>370</ele>
        <time>2018-01-14T19:25:42Z</time>
      </trkpt>
      <trkpt lat="45.753" lon="3.52779">
        <ele>369</ele>
        <time>2018-01-14T19:26:42Z</time>
      </trkpt>
      <trkpt lat="45.75336" lon="3.52783">
        <ele>369</ele>
        <time>2018-01-14T19:27:42Z</time>
      </trkpt>
      <trkpt lat="45.75351" lon="3.52791">
        <ele>369</ele>
        <time>2018-01-14T19:28:42Z</time>
      </trkpt>
      <trkpt lat="45.75382" lon="3.52791">
        <ele>370</ele>
        <time>2018-01-14T19:29:42Z</time>
      </trkpt>
      <trkpt lat="45.75421" lon="3.52802">
        <ele>370</ele>
        <time>2018-01-14T19:30:42Z</time>
      </trkpt>
      <trkpt lat="45.75429" lon="3.52815">
        <ele>369</ele>
        <time>2018-01-14T19:31:42Z</time>
      </trkpt>
      <trkpt lat="45.75433" lon="3.52832">
        <ele>368</ele>
        <time>2018-01-14T19:32:42Z</time>
      </trkpt>
      <trkpt lat="45.75431" lon="3.52853">
        <ele>367</ele>
        <time>2018-01-14T19:33:42Z</time>
      </trkpt>
      <trkpt lat="45.75402" lon="3.5295">
        <ele>361</ele>
        <time>2018-01-14T19:34:42Z</time>
      </trkpt>
      <trkpt lat="45.75377" lon="3.5296">
        <ele>361</ele>
        <time>2018-01-14T19:35:42Z</time>
      </trkpt>
      <trkpt lat="45.75369" lon="3.53016">
        <ele>355</ele>
        <time>2018-01-14T19:36:42Z</time>
      </trkpt>
      <trkpt lat="45.75369" lon="3.53036">
        <ele>353</ele>
        <time>2018-01-14T19:37:42Z</time>
      </trkpt>
      <trkpt lat="45.75387" lon="3.53107">
        <ele>346</ele>
        <time>2018-01-14T19:38:42Z</time>
      </trkpt>
      <trkpt lat="45.7539" lon="3.53137">
        <ele>343</ele>
        <time>2018-01-14T19:39:42Z</time>
      </trkpt>
      <trkpt lat="45.75389" lon="3.53158">
        <ele>341</ele>
        <time>2018-01-14T19:40:42Z</time>
      </trkpt>
      <trkpt lat="45.7538" lon="3.53181">
        <ele>339</ele>
        <time>2018-01-14T19:41:42Z</time>
      </trkpt>
      <trkpt lat="45.75364" lon="3.53206">
        <ele>338</ele>
        <time>2018-01-14T19:42:42Z</time>
      </trkpt>
      <trkpt lat="45.75355" lon="3.5323">
        <ele>336</ele>
        <time>2018-01-14T19:43:42Z</time>
      </trkpt>
      <trkpt lat="45.75352" lon="3.53252">
        <ele>334</ele>
        <time>2018-01-14T19:44:42Z</time>
      </trkpt>
      <trkpt lat="45.75367" lon="3.53445">
        <ele>332</ele>
        <time>2018-01-14T19:45:42Z</time>
      </trkpt>
      <trkpt lat="45.75372" lon="3.53458">
        <ele>332</ele>
        <time>2018-01-14T19:46:42Z</time>
      </trkpt>
      <trkpt lat="45.75372" lon="3.53468">
        <ele>332</ele>
        <time>2018-01-14T19:47:42Z</time>
      </trkpt>
      <trkpt lat="45.75367" lon="3.53475">
        <ele>332</ele>
        <time>2018-01-14T19:48:42Z</time>
      </trkpt>
      <trkpt lat="45.75369" lon="3.53489">
        <ele>332</ele>
        <time>2018-01-14T19:49:42Z</time>
      </trkpt>
      <trkpt lat="45.75372" lon="3.53545">
        <ele>331</ele>
        <time>2018-01-14T19:50:42Z</time>
      </trkpt>
      <trkpt lat="45.75372" lon="3.53681">
        <ele>330</ele>
        <time>2018-01-14T19:51:42Z</time>
      </trkpt>
      <trkpt lat="45.75365" lon="3.53762">
        <ele>330</ele>
        <time>2018-01-14T19:52:42Z</time>
      </trkpt>
      <trkpt lat="45.75343" lon="3.53762">
        <ele>329</ele>
        <time>2018-01-14T19:53:42Z</time>
      </trkpt>
      <trkpt lat="45.75332" lon="3.53779">
        <ele>327</ele>
        <time>2018-01-14T19:54:42Z</time>
      </trkpt>
      <trkpt lat="45.75327" lon="3.53784">
        <ele>326</ele>
        <time>2018-01-14T19:55:42Z</time>
      </trkpt>
      <trkpt lat="45.75335" lon="3.53795">
        <ele>326</ele>
        <time>2018-01-14T19:56:42Z</time>
      </trkpt>
      <trkpt lat="45.75347" lon="3.53806">
        <ele>327</ele>
        <time>2018-01-14T19:57:42Z</time>
      </trkpt>
      <trkpt lat="45.75356" lon="3.53798">
        <ele>328</ele>
        <time>2018-01-14T19:58:42Z</time>
      </trkpt>
      <trkpt lat="45.7536" lon="3.53789">
        <ele>329</ele>
        <time>2018-01-14T19:59:42Z</time>
      </trkpt>
    </trkseg>
  </trk>
</gpx>